Darstellungsparameter: Aktuell verwendete Einstellungen:
Skalierung der Graphiken ... ?
xyx+y,   Skalierungsfaktor:      Skalierung: Modus: x, Faktor: 1
Darstellungszeitraum ... ?
Vom - - bis: - -   Zeitraum: 01.03.2003 - 07.03.2003
Min/Max/Avg-Anzeige ... ?
Zeige MMA aktuell
Zeige MMA Monat
Zeige MMA alles
Zeige --A aktuell
Zeige --A Monat
Zeige --A alles
Keine MMA-Anzeige
MMA:
Average (ber die Originaldaten)
MMA-Basis: 01.03.2003 - 07.03.2003
Quicknavigation für Darstellung... ?
Tage:      1T, 2T, 3T, 5T -1T -2T -3T -5T +1T +2T +3T +5T
Wochen: 1W, 2W, 3W -1W -2W -3W +1W +2W +3W
Monate: 1M, 3M, 6M -1M -3M -6M +1M +3M +6M
Jahre:    1J, 3J, 5J, 10J -1J -3J -5J -10J +1J +3J +5J +10J
Nutze für die Darstellung ... ?
Originaldaten oder Mittelwerte auf ...
Stundenbasis Tagesbasis Wochenbasis
Monatsbasis Jahresbasis      Datenbasis: Original-Daten
Darstellen als:
Statistik (Auto) Statistik J:M      Darstellung:
Zur Graphik,    zurück zur Übersicht aller Sensoren.
 
Tabellarische Datenbersicht: ?
 
Sensor: Nr:Datum:Temp:Abs-Feuchte:Windchill:Wind:
Aussen-T/F 1 01-03-2003 00:01:10 5.2 C 5.58 g/m*3 5.2 C 0 km/h
2 01-03-2003 00:02:10 5.2 C 5.58 g/m*3 5.2 C 0 km/h
3 01-03-2003 00:07:10 5.2 C 5.65 g/m*3 5.2 C 0 km/h
4 01-03-2003 00:08:10 5.2 C 5.65 g/m*3 5.2 C 0 km/h
5 01-03-2003 00:13:10 5.1 C 5.61 g/m*3 5.1 C 0 km/h
6 01-03-2003 00:14:10 5.1 C 5.61 g/m*3 5.1 C 0 km/h
7 01-03-2003 00:19:10 4.7 C 5.46 g/m*3 4.7 C 0 km/h
8 01-03-2003 00:20:10 4.7 C 5.46 g/m*3 4.7 C 0 km/h
9 01-03-2003 00:25:10 4.5 C 5.39 g/m*3 4.5 C 0 km/h
10 01-03-2003 00:26:10 4.5 C 5.39 g/m*3 4.5 C 0 km/h
11 01-03-2003 00:31:10 4.5 C 5.46 g/m*3 4.5 C 0 km/h
12 01-03-2003 00:32:10 4.5 C 5.46 g/m*3 4.5 C 0 km/h
13 01-03-2003 00:37:10 4.4 C 5.48 g/m*3 4.4 C 0 km/h
14 01-03-2003 00:38:10 4.4 C 5.48 g/m*3 4.4 C 0 km/h
15 01-03-2003 00:43:10 4.5 C 5.59 g/m*3 4.5 C 0 km/h
16 01-03-2003 00:44:10 4.5 C 5.59 g/m*3 4.5 C 0 km/h
17 01-03-2003 00:49:10 4.5 C 5.59 g/m*3 4.5 C 0 km/h
18 01-03-2003 00:50:10 4.5 C 5.59 g/m*3 4.5 C 0 km/h
19 01-03-2003 00:55:10 4.5 C 5.52 g/m*3 4.5 C 0 km/h
20 01-03-2003 00:56:10 4.5 C 5.52 g/m*3 4.5 C 0 km/h
21 01-03-2003 01:01:10 4.4 C 5.42 g/m*3 4.4 C 0 km/h
22 01-03-2003 01:02:10 4.4 C 5.42 g/m*3 4.4 C 0 km/h
23 01-03-2003 01:07:10 4.3 C 5.38 g/m*3 4.3 C 0 km/h
24 01-03-2003 01:08:10 4.3 C 5.38 g/m*3 4.3 C 0 km/h
25 01-03-2003 01:13:10 4.2 C 5.35 g/m*3 4.2 C 0 km/h
Sensor: Nr:Datum:Temp:Abs-Feuchte:Windchill:Wind:
Aussen-T/F 26 01-03-2003 01:14:10 4.2 C 5.35 g/m*3 4.2 C 0 km/h
27 01-03-2003 01:19:10 4.2 C 5.35 g/m*3 4.2 C 0 km/h
28 01-03-2003 01:20:10 4.2 C 5.35 g/m*3 4.2 C 0 km/h
29 01-03-2003 01:25:10 4.3 C 5.38 g/m*3 4.3 C 0 km/h
30 01-03-2003 01:26:10 4.3 C 5.38 g/m*3 4.3 C 0 km/h
31 01-03-2003 01:31:10 4.3 C 5.38 g/m*3 4.3 C 0 km/h
32 01-03-2003 01:32:10 4.3 C 5.38 g/m*3 4.3 C 0 km/h
33 01-03-2003 01:37:10 4.2 C 5.35 g/m*3 4.2 C 0 km/h
34 01-03-2003 01:38:10 4.2 C 5.35 g/m*3 4.2 C 0 km/h
35 01-03-2003 01:43:10 4.2 C 5.35 g/m*3 4.2 C 0 km/h
36 01-03-2003 01:44:10 4.2 C 5.35 g/m*3 4.2 C 0 km/h
37 01-03-2003 01:49:10 4.3 C 5.38 g/m*3 4.3 C 0 km/h
38 01-03-2003 01:50:10 4.3 C 5.38 g/m*3 4.3 C 0 km/h
39 01-03-2003 01:55:10 4.3 C 5.38 g/m*3 4.3 C 0 km/h
40 01-03-2003 01:56:10 4.3 C 5.38 g/m*3 4.3 C 0 km/h
41 01-03-2003 02:01:10 4.3 C 5.38 g/m*3 4.3 C 0 km/h
42 01-03-2003 02:02:10 4.3 C 5.38 g/m*3 4.3 C 0 km/h
43 01-03-2003 02:07:10 4.4 C 5.42 g/m*3 4.4 C 0 km/h
44 01-03-2003 02:08:10 4.4 C 5.42 g/m*3 4.4 C 0 km/h
45 01-03-2003 02:13:10 4.4 C 5.42 g/m*3 4.4 C 0 km/h
46 01-03-2003 02:14:10 4.4 C 5.42 g/m*3 4.4 C 0 km/h
47 01-03-2003 02:19:10 4.5 C 5.46 g/m*3 4.5 C 0 km/h
48 01-03-2003 02:20:10 4.5 C 5.46 g/m*3 4.5 C 0 km/h
49 01-03-2003 02:25:10 4.5 C 5.39 g/m*3 4.5 C 0 km/h
50 01-03-2003 02:26:10 4.5 C 5.39 g/m*3 4.5 C 0 km/h
Sensor: Nr:Datum:Temp:Abs-Feuchte:Windchill:Wind:
Aussen-T/F 51 01-03-2003 02:31:10 4.6 C 5.49 g/m*3 4.6 C 0 km/h
52 01-03-2003 02:32:10 4.6 C 5.49 g/m*3 4.6 C 0 km/h
53 01-03-2003 02:37:10 4.7 C 5.46 g/m*3 4.7 C 0 km/h
54 01-03-2003 02:38:10 4.7 C 5.46 g/m*3 4.7 C 0 km/h
55 01-03-2003 02:43:10 4.7 C 5.46 g/m*3 4.7 C 0 km/h
56 01-03-2003 02:44:10 4.7 C 5.46 g/m*3 4.7 C 0 km/h
57 01-03-2003 02:49:10 4.6 C 5.49 g/m*3 4.6 C 0 km/h
58 01-03-2003 02:50:10 4.6 C 5.49 g/m*3 4.6 C 0 km/h
59 01-03-2003 02:50:37 4.6 C 5.49 g/m*3 4.6 C 0 km/h
60 01-03-2003 02:55:10 4.7 C 5.53 g/m*3 4.7 C 0 km/h
61 01-03-2003 02:56:37 4.7 C 5.53 g/m*3 4.7 C 0 km/h
62 01-03-2003 03:01:10 4.6 C 5.56 g/m*3 4.6 C 0 km/h
63 01-03-2003 03:02:37 4.6 C 5.56 g/m*3 4.6 C 0 km/h
64 01-03-2003 03:07:10 4.5 C 5.59 g/m*3 4.5 C 0 km/h
65 01-03-2003 03:08:37 4.5 C 5.59 g/m*3 4.5 C 0 km/h
66 01-03-2003 03:13:10 4.4 C 5.62 g/m*3 4.4 C 0 km/h
67 01-03-2003 03:14:37 4.4 C 5.62 g/m*3 4.4 C 0 km/h
68 01-03-2003 03:19:10 4.3 C 5.58 g/m*3 4.3 C 0 km/h
69 01-03-2003 03:20:37 4.3 C 5.58 g/m*3 4.3 C 0 km/h
70 01-03-2003 03:25:10 4.3 C 5.64 g/m*3 4.3 C 0 km/h
71 01-03-2003 03:26:37 4.3 C 5.64 g/m*3 4.3 C 0 km/h
72 01-03-2003 03:31:10 4.3 C 5.71 g/m*3 4.3 C 0 km/h
73 01-03-2003 03:32:37 4.3 C 5.71 g/m*3 4.3 C 0 km/h
74 01-03-2003 03:37:10 4.4 C 5.75 g/m*3 4.4 C 0 km/h
75 01-03-2003 03:38:37 4.4 C 5.75 g/m*3 4.4 C 0 km/h
Sensor: Nr:Datum:Temp:Abs-Feuchte:Windchill:Wind:
Aussen-T/F 76 01-03-2003 03:43:10 4.4 C 5.81 g/m*3 4.4 C 0 km/h
77 01-03-2003 03:44:37 4.4 C 5.81 g/m*3 4.4 C 0 km/h
78 01-03-2003 03:49:10 4.5 C 5.85 g/m*3 4.5 C 0 km/h
79 01-03-2003 03:50:37 4.5 C 5.85 g/m*3 4.5 C 0 km/h
80 01-03-2003 03:55:10 4.4 C 5.81 g/m*3 4.4 C 0 km/h
81 01-03-2003 03:56:37 4.4 C 5.81 g/m*3 4.4 C 0 km/h
82 01-03-2003 04:01:10 4.4 C 5.88 g/m*3 4.4 C 0 km/h
83 01-03-2003 04:02:37 4.4 C 5.88 g/m*3 4.4 C 0 km/h
84 01-03-2003 04:07:10 4.3 C 5.84 g/m*3 4.3 C 0 km/h
85 01-03-2003 04:08:37 4.3 C 5.84 g/m*3 4.3 C 0 km/h
86 01-03-2003 04:13:10 4.3 C 5.84 g/m*3 4.3 C 0 km/h
87 01-03-2003 04:14:37 4.3 C 5.84 g/m*3 4.3 C 0 km/h
88 01-03-2003 04:19:10 4.4 C 5.94 g/m*3 4.4 C 0 km/h
89 01-03-2003 04:20:37 4.4 C 5.94 g/m*3 4.4 C 0 km/h
90 01-03-2003 04:25:10 4.4 C 5.94 g/m*3 4.4 C 0 km/h
91 01-03-2003 04:26:37 4.4 C 5.94 g/m*3 4.4 C 0 km/h
92 01-03-2003 04:31:10 4.4 C 5.94 g/m*3 4.4 C 0 km/h
93 01-03-2003 04:32:37 4.4 C 5.94 g/m*3 4.4 C 0 km/h
94 01-03-2003 04:37:10 4.6 C 6.02 g/m*3 4.6 C 0 km/h
95 01-03-2003 04:38:37 4.6 C 6.02 g/m*3 4.6 C 0 km/h
96 01-03-2003 04:43:10 4.6 C 6.09 g/m*3 4.6 C 0 km/h
97 01-03-2003 04:44:37 4.6 C 6.09 g/m*3 4.6 C 0 km/h
98 01-03-2003 04:49:10 4.7 C 6.13 g/m*3 4.7 C 0 km/h
99 01-03-2003 04:50:37 4.7 C 6.13 g/m*3 4.7 C 0 km/h
100 01-03-2003 04:55:10 4.7 C 6.13 g/m*3 4.7 C 0 km/h
Sensor: Nr:Datum:Temp:Abs-Feuchte:Windchill:Wind:
Aussen-T/F 101 01-03-2003 04:56:37 4.7 C 6.13 g/m*3 4.7 C 0 km/h
102 01-03-2003 05:01:10 4.6 C 6.09 g/m*3 4.6 C 0 km/h
103 01-03-2003 05:02:37 4.6 C 6.09 g/m*3 4.6 C 0 km/h
104 01-03-2003 05:07:10 4.7 C 6.13 g/m*3 4.7 C 0 km/h
105 01-03-2003 05:08:37 4.7 C 6.13 g/m*3 4.7 C 0 km/h
106 01-03-2003 05:13:10 4.6 C 6.09 g/m*3 4.6 C 0 km/h
107 01-03-2003 05:14:37 4.6 C 6.09 g/m*3 4.6 C 0 km/h
108 01-03-2003 05:19:10 4.7 C 6.13 g/m*3 4.7 C 0 km/h
109 01-03-2003 05:20:37 4.7 C 6.13 g/m*3 4.7 C 0 km/h
110 01-03-2003 05:25:10 4.5 C 6.05 g/m*3 4.5 C 0 km/h
111 01-03-2003 05:26:37 4.5 C 6.05 g/m*3 4.5 C 0 km/h
112 01-03-2003 05:31:10 4.4 C 6.01 g/m*3 4.4 C 0 km/h
113 01-03-2003 05:32:37 4.4 C 6.01 g/m*3 4.4 C 0 km/h
114 01-03-2003 05:37:10 4.4 C 6.01 g/m*3 4.4 C 0 km/h
115 01-03-2003 05:38:37 4.4 C 6.01 g/m*3 4.4 C 0 km/h
116 01-03-2003 05:43:10 4.3 C 5.97 g/m*3 4.3 C 0 km/h
117 01-03-2003 05:44:37 4.3 C 5.97 g/m*3 4.3 C 0 km/h
118 01-03-2003 05:49:10 4.3 C 5.97 g/m*3 4.3 C 0 km/h
119 01-03-2003 05:50:37 4.3 C 5.97 g/m*3 4.3 C 0 km/h
120 01-03-2003 05:55:10 4.3 C 5.97 g/m*3 4.3 C 0 km/h
121 01-03-2003 05:56:37 4.3 C 5.97 g/m*3 4.3 C 0 km/h
122 01-03-2003 06:01:10 4.5 C 6.05 g/m*3 4.5 C 0 km/h
123 01-03-2003 06:02:37 4.5 C 6.05 g/m*3 4.5 C 0 km/h
124 01-03-2003 06:07:10 4.5 C 6.05 g/m*3 4.5 C 0 km/h
125 01-03-2003 06:08:37 4.5 C 6.05 g/m*3 4.5 C 0 km/h
Sensor: Nr:Datum:Temp:Abs-Feuchte:Windchill:Wind:
Aussen-T/F 126 01-03-2003 06:13:10 4.8 C 6.24 g/m*3 4.8 C 0 km/h
127 01-03-2003 06:14:37 4.8 C 6.24 g/m*3 4.8 C 0 km/h
128 01-03-2003 06:19:10 5 C 6.25 g/m*3 5 C 0 km/h
129 01-03-2003 06:20:37 5 C 6.25 g/m*3 5 C 0 km/h
130 01-03-2003 06:25:10 4.9 C 6.28 g/m*3 4.9 C 0 km/h
131 01-03-2003 06:26:37 4.9 C 6.28 g/m*3 4.9 C 0 km/h
132 01-03-2003 06:31:10 5.1 C 6.29 g/m*3 5.1 C 0 km/h
133 01-03-2003 06:32:37 5.1 C 6.29 g/m*3 5.1 C 0 km/h
134 01-03-2003 06:37:10 5.2 C 6.33 g/m*3 5.2 C 0 km/h
135 01-03-2003 06:38:37 5.2 C 6.33 g/m*3 5.2 C 0 km/h
136 01-03-2003 06:43:10 5.4 C 6.42 g/m*3 5.4 C 0 km/h
137 01-03-2003 06:44:37 5.4 C 6.42 g/m*3 5.4 C 0 km/h
138 01-03-2003 06:49:10 5.7 C 6.62 g/m*3 5.7 C 0 km/h
139 01-03-2003 06:50:37 5.7 C 6.62 g/m*3 5.7 C 0 km/h
140 01-03-2003 06:55:10 6 C 6.75 g/m*3 6 C 0 km/h
141 01-03-2003 06:56:37 6 C 6.75 g/m*3 6 C 0 km/h
142 01-03-2003 07:01:10 6.3 C 6.88 g/m*3 6.3 C 0 km/h
143 01-03-2003 07:02:37 6.3 C 6.88 g/m*3 6.3 C 0 km/h
144 01-03-2003 07:07:10 6.5 C 6.9 g/m*3 6.5 C 0 km/h
145 01-03-2003 07:08:37 6.5 C 6.9 g/m*3 6.5 C 0 km/h
146 01-03-2003 07:13:10 6.7 C 6.91 g/m*3 6.7 C 0 km/h
147 01-03-2003 07:14:37 6.7 C 6.91 g/m*3 6.7 C 0 km/h
148 01-03-2003 07:19:10 6.8 C 6.96 g/m*3 6.8 C 0 km/h
149 01-03-2003 07:20:37 6.8 C 6.96 g/m*3 6.8 C 0 km/h
150 01-03-2003 07:25:10 7 C 6.97 g/m*3 7 C 0 km/h
Sensor: Nr:Datum:Temp:Abs-Feuchte:Windchill:Wind:
Aussen-T/F 151 01-03-2003 07:26:37 7 C 6.97 g/m*3 7 C 0 km/h
152 01-03-2003 07:31:10 7.3 C 7.03 g/m*3 7.3 C 0 km/h
153 01-03-2003 07:32:37 7.3 C 7.03 g/m*3 7.3 C 0 km/h
154 01-03-2003 07:37:10 7.6 C 7.09 g/m*3 7.6 C 0 km/h
155 01-03-2003 07:38:37 7.6 C 7.09 g/m*3 7.6 C 0 km/h
156 01-03-2003 07:43:10 7.7 C 7.05 g/m*3 7.7 C 0 km/h
157 01-03-2003 07:44:37 7.7 C 7.05 g/m*3 7.7 C 0 km/h
158 01-03-2003 07:49:10 7.8 C 7.02 g/m*3 7.8 C 0 km/h
159 01-03-2003 07:50:37 7.8 C 7.02 g/m*3 7.8 C 0 km/h
160 01-03-2003 07:55:10 7.9 C 6.98 g/m*3 7.9 C 0 km/h
161 01-03-2003 07:56:37 7.9 C 6.98 g/m*3 7.9 C 0 km/h
162 01-03-2003 08:01:10 8 C 6.94 g/m*3 8 C 0 km/h
163 01-03-2003 08:02:37 8 C 6.94 g/m*3 8 C 0 km/h
164 01-03-2003 08:07:10 8 C 6.86 g/m*3 8 C 0 km/h
165 01-03-2003 08:08:37 8 C 6.86 g/m*3 8 C 0 km/h
166 01-03-2003 08:13:10 8.1 C 6.91 g/m*3 8.1 C 0 km/h
167 01-03-2003 08:14:37 8.1 C 6.91 g/m*3 8.1 C 0 km/h
168 01-03-2003 08:19:10 8.1 C 6.91 g/m*3 8.1 C 0 km/h
169 01-03-2003 08:20:37 8.1 C 6.91 g/m*3 8.1 C 0 km/h
170 01-03-2003 08:25:10 8.2 C 6.87 g/m*3 8.2 C 0 km/h
171 01-03-2003 08:26:37 8.2 C 6.87 g/m*3 8.2 C 0 km/h
172 01-03-2003 08:31:10 8.1 C 6.91 g/m*3 8.1 C 0 km/h
173 01-03-2003 08:32:37 8.1 C 6.91 g/m*3 8.1 C 0 km/h
174 01-03-2003 08:37:10 8.1 C 6.91 g/m*3 8.1 C 0 km/h
175 01-03-2003 08:38:37 8.1 C 6.91 g/m*3 8.1 C 0 km/h
Sensor: Nr:Datum:Temp:Abs-Feuchte:Windchill:Wind:
Aussen-T/F 176 01-03-2003 08:43:10 8 C 6.86 g/m*3 8 C 0 km/h
177 01-03-2003 08:44:37 8 C 6.86 g/m*3 8 C 0 km/h
178 01-03-2003 08:49:10 7.9 C 6.98 g/m*3 7.9 C 0 km/h
179 01-03-2003 08:50:37 7.9 C 6.98 g/m*3 7.9 C 0 km/h
180 01-03-2003 08:55:10 7.8 C 6.94 g/m*3 7.8 C 0 km/h
181 01-03-2003 08:56:37 7.8 C 6.94 g/m*3 7.8 C 0 km/h
182 01-03-2003 09:01:10 7.8 C 7.02 g/m*3 7.8 C 0 km/h
183 01-03-2003 09:02:37 7.8 C 7.02 g/m*3 7.8 C 0 km/h
184 01-03-2003 09:07:10 7.9 C 7.06 g/m*3 7.9 C 0 km/h
185 01-03-2003 09:08:37 7.9 C 7.06 g/m*3 7.9 C 0 km/h
186 01-03-2003 09:13:10 7.9 C 7.06 g/m*3 7.9 C 0 km/h
187 01-03-2003 09:14:37 7.9 C 7.06 g/m*3 7.9 C 0 km/h
188 01-03-2003 09:19:10 8 C 6.94 g/m*3 8 C 0 km/h
189 01-03-2003 09:20:37 8 C 6.94 g/m*3 8 C 0 km/h
190 01-03-2003 09:25:10 8.1 C 6.99 g/m*3 8.1 C 0 km/h
191 01-03-2003 09:26:37 8.1 C 6.99 g/m*3 8.1 C 0 km/h
192 01-03-2003 09:31:10 8.2 C 7.03 g/m*3 8.2 C 0 km/h
193 01-03-2003 09:32:37 8.2 C 7.03 g/m*3 8.2 C 0 km/h
194 01-03-2003 09:37:10 8.2 C 7.03 g/m*3 8.2 C 0 km/h
195 01-03-2003 09:38:37 8.2 C 7.03 g/m*3 8.2 C 0 km/h
196 01-03-2003 09:43:10 8.3 C 7 g/m*3 8.3 C 0 km/h
197 01-03-2003 09:44:37 8.3 C 7 g/m*3 8.3 C 0 km/h
198 01-03-2003 09:49:10 8.4 C 7.04 g/m*3 8.4 C 0 km/h
199 01-03-2003 09:50:37 8.4 C 7.04 g/m*3 8.4 C 0 km/h
200 01-03-2003 09:55:10 8.5 C 7.09 g/m*3 8.5 C 0 km/h
Sensor: Nr:Datum:Temp:Abs-Feuchte:Windchill:Wind:
Aussen-T/F 201 01-03-2003 09:56:37 8.5 C 7.09 g/m*3 8.5 C 0 km/h
202 01-03-2003 10:01:10 8.7 C 7.09 g/m*3 8.7 C 0 km/h
203 01-03-2003 10:02:37 8.7 C 7.09 g/m*3 8.7 C 0 km/h
204 01-03-2003 10:07:10 8.8 C 7.14 g/m*3 8.8 C 0 km/h
205 01-03-2003 10:08:37 8.8 C 7.14 g/m*3 8.8 C 0 km/h
206 01-03-2003 10:13:10 8.9 C 7.1 g/m*3 8.9 C 0 km/h
207 01-03-2003 10:14:37 8.9 C 7.1 g/m*3 8.9 C 0 km/h
208 01-03-2003 10:19:10 8.9 C 7.1 g/m*3 8.9 C 0 km/h
209 01-03-2003 10:20:37 8.9 C 7.1 g/m*3 8.9 C 0 km/h
210 01-03-2003 10:25:10 8.9 C 7.1 g/m*3 8.9 C 0 km/h
211 01-03-2003 10:26:37 8.9 C 7.1 g/m*3 8.9 C 0 km/h
212 01-03-2003 10:31:10 8.9 C 7.1 g/m*3 8.9 C 0 km/h
213 01-03-2003 10:32:37 8.9 C 7.1 g/m*3 8.9 C 0 km/h
214 01-03-2003 10:37:10 8.9 C 7.1 g/m*3 8.9 C 0 km/h
215 01-03-2003 10:38:37 8.9 C 7.1 g/m*3 8.9 C 0 km/h
216 01-03-2003 10:43:10 8.9 C 7.1 g/m*3 8.9 C 0 km/h
217 01-03-2003 10:44:37 8.9 C 7.1 g/m*3 8.9 C 0 km/h
218 01-03-2003 10:49:10 9 C 6.96 g/m*3 9 C 0 km/h
219 01-03-2003 10:50:37 9 C 6.96 g/m*3 9 C 0 km/h
220 01-03-2003 10:55:10 9 C 6.96 g/m*3 9 C 0 km/h
221 01-03-2003 10:56:37 9 C 6.96 g/m*3 9 C 0 km/h
222 01-03-2003 11:01:10 9.1 C 7.01 g/m*3 9.1 C 0 km/h
223 01-03-2003 11:02:37 9.1 C 7.01 g/m*3 9.1 C 0 km/h
224 01-03-2003 11:07:10 9.2 C 7.05 g/m*3 9.2 C 0 km/h
225 01-03-2003 11:08:37 9.2 C 7.05 g/m*3 9.2 C 0 km/h
Sensor: Nr:Datum:Temp:Abs-Feuchte:Windchill:Wind:
Aussen-T/F 226 01-03-2003 11:13:10 9.3 C 7.01 g/m*3 9.3 C 0 km/h
227 01-03-2003 11:14:37 9.3 C 7.01 g/m*3 9.3 C 0 km/h
228 01-03-2003 11:19:10 9.3 C 7.01 g/m*3 9.3 C 0 km/h
229 01-03-2003 11:20:37 9.3 C 7.01 g/m*3 9.3 C 0 km/h
230 01-03-2003 11:25:10 9.4 C 7.05 g/m*3 9.4 C 0 km/h
231 01-03-2003 11:26:37 9.4 C 7.05 g/m*3 9.4 C 0 km/h
232 01-03-2003 11:31:10 9.4 C 7.05 g/m*3 9.4 C 0 km/h
233 01-03-2003 11:32:37 9.4 C 7.05 g/m*3 9.4 C 0 km/h
234 01-03-2003 11:37:10 9.6 C 7.05 g/m*3 9.6 C 0 km/h
235 01-03-2003 11:38:37 9.6 C 7.05 g/m*3 9.6 C 0 km/h
236 01-03-2003 11:43:10 9.6 C 7.05 g/m*3 9.6 C 0 km/h
237 01-03-2003 11:44:37 9.6 C 7.05 g/m*3 9.6 C 0 km/h
238 01-03-2003 11:49:10 9.6 C 7.05 g/m*3 9.6 C 0 km/h
239 01-03-2003 11:50:37 9.6 C 7.05 g/m*3 9.6 C 0 km/h
240 01-03-2003 11:55:10 9.7 C 7.01 g/m*3 9.7 C 0 km/h
241 01-03-2003 11:56:37 9.7 C 7.01 g/m*3 9.7 C 0 km/h
242 01-03-2003 12:01:10 9.7 C 7.01 g/m*3 9.7 C 0 km/h
243 01-03-2003 12:02:37 9.7 C 7.01 g/m*3 9.7 C 0 km/h
244 01-03-2003 12:07:10 9.8 C 7.05 g/m*3 9.8 C 0 km/h
245 01-03-2003 12:08:37 9.8 C 7.05 g/m*3 9.8 C 0 km/h
246 01-03-2003 12:13:10 9.8 C 7.05 g/m*3 9.8 C 0 km/h
247 01-03-2003 12:14:37 9.8 C 7.05 g/m*3 9.8 C 0 km/h
248 01-03-2003 12:19:10 9.9 C 7 g/m*3 9.9 C 0 km/h
249 01-03-2003 12:20:37 9.9 C 7 g/m*3 9.9 C 0 km/h
250 01-03-2003 12:25:10 10 C 6.86 g/m*3 10 C 0 km/h
Sensor: Nr:Datum:Temp:Abs-Feuchte:Windchill:Wind:
Aussen-T/F 251 01-03-2003 12:26:37 10 C 6.86 g/m*3 10 C 0 km/h
252 01-03-2003 12:31:10 9.9 C 7 g/m*3 9.9 C 0 km/h
253 01-03-2003 12:32:37 9.9 C 7 g/m*3 9.9 C 0 km/h
254 01-03-2003 12:37:10 9.8 C 6.96 g/m*3 9.8 C 0 km/h
255 01-03-2003 12:38:37 9.8 C 6.96 g/m*3 9.8 C 0 km/h
256 01-03-2003 12:43:10 9.8 C 6.96 g/m*3 9.8 C 0 km/h
257 01-03-2003 12:44:37 9.8 C 6.96 g/m*3 9.8 C 0 km/h
258 01-03-2003 12:49:10 9.9 C 7 g/m*3 9.9 C 0 km/h
259 01-03-2003 12:50:37 9.9 C 7 g/m*3 9.9 C 0 km/h
260 01-03-2003 12:55:10 10 C 6.95 g/m*3 10 C 0 km/h
261 01-03-2003 12:56:37 10 C 6.95 g/m*3 10 C 0 km/h
262 01-03-2003 13:01:10 10.1 C 6.9 g/m*3 10.1 C 0 km/h
263 01-03-2003 13:02:37 10.1 C 6.9 g/m*3 10.1 C 0 km/h
264 01-03-2003 13:07:10 10 C 6.86 g/m*3 10 C 0 km/h
265 01-03-2003 13:08:37 10 C 6.86 g/m*3 10 C 0 km/h
266 01-03-2003 13:13:10 10 C 6.86 g/m*3 10 C 0 km/h
267 01-03-2003 13:14:37 10 C 6.86 g/m*3 10 C 0 km/h
268 01-03-2003 13:19:10 10 C 6.86 g/m*3 10 C 0 km/h
269 01-03-2003 13:20:37 10 C 6.86 g/m*3 10 C 0 km/h
270 01-03-2003 13:25:10 10 C 6.86 g/m*3 10 C 0 km/h
271 01-03-2003 13:26:37 10 C 6.86 g/m*3 10 C 0 km/h
272 01-03-2003 13:31:10 10 C 6.86 g/m*3 10 C 0 km/h
273 01-03-2003 13:32:37 10 C 6.86 g/m*3 10 C 0 km/h
274 01-03-2003 13:37:10 10.1 C 7 g/m*3 10.1 C 0 km/h
275 01-03-2003 13:38:37 10.1 C 7 g/m*3 10.1 C 0 km/h
Sensor: Nr:Datum:Temp:Abs-Feuchte:Windchill:Wind:
Aussen-T/F 276 01-03-2003 13:43:10 10.1 C 6.9 g/m*3 10.1 C 0 km/h
277 01-03-2003 13:44:37 10.1 C 6.9 g/m*3 10.1 C 0 km/h
278 01-03-2003 13:49:10 10.2 C 6.95 g/m*3 10.2 C 0 km/h
279 01-03-2003 13:50:37 10.2 C 6.95 g/m*3 10.2 C 0 km/h
280 01-03-2003 13:55:10 10.2 C 6.95 g/m*3 10.2 C 0 km/h
281 01-03-2003 13:56:37 10.2 C 6.95 g/m*3 10.2 C 0 km/h
282 01-03-2003 14:01:10 10.2 C 6.85 g/m*3 10.2 C 0 km/h
283 01-03-2003 14:02:37 10.2 C 6.85 g/m*3 10.2 C 0 km/h
284 01-03-2003 14:07:10 10.4 C 6.94 g/m*3 10.4 C 0 km/h
285 01-03-2003 14:08:37 10.4 C 6.94 g/m*3 10.4 C 0 km/h
286 01-03-2003 14:13:10 10.5 C 6.98 g/m*3 10.5 C 0 km/h
287 01-03-2003 14:14:37 10.5 C 6.98 g/m*3 10.5 C 0 km/h
288 01-03-2003 14:19:10 10.6 C 7.03 g/m*3 10.6 C 0 km/h
289 01-03-2003 14:20:37 10.6 C 7.03 g/m*3 10.6 C 0 km/h
290 01-03-2003 14:25:10 10.9 C 7.06 g/m*3 10.9 C 0 km/h
291 01-03-2003 14:26:37 10.9 C 7.06 g/m*3 10.9 C 0 km/h
292 01-03-2003 14:31:10 11 C 7.01 g/m*3 11 C 0 km/h
293 01-03-2003 14:32:37 11 C 7.01 g/m*3 11 C 0 km/h
294 01-03-2003 14:37:10 11.1 C 7.05 g/m*3 11.1 C 0 km/h
295 01-03-2003 14:38:37 11.1 C 7.05 g/m*3 11.1 C 0 km/h
296 01-03-2003 14:43:10 11.3 C 7.04 g/m*3 11.3 C 0 km/h
297 01-03-2003 14:44:37 11.3 C 7.04 g/m*3 11.3 C 0 km/h
298 01-03-2003 14:49:10 11.5 C 7.13 g/m*3 11.5 C 0 km/h
299 01-03-2003 14:50:37 11.5 C 7.13 g/m*3 11.5 C 0 km/h
300 01-03-2003 14:55:10 11.6 C 7.07 g/m*3 11.6 C 0 km/h
Sensor: Nr:Datum:Temp:Abs-Feuchte:Windchill:Wind:
Aussen-T/F 301 01-03-2003 14:56:37 11.6 C 7.07 g/m*3 11.6 C 0 km/h
302 01-03-2003 15:01:10 11.7 C 7.11 g/m*3 11.7 C 0 km/h
303 01-03-2003 15:02:37 11.7 C 7.11 g/m*3 11.7 C 0 km/h
304 01-03-2003 15:07:10 11.7 C 7.11 g/m*3 11.7 C 0 km/h
305 01-03-2003 15:08:37 11.7 C 7.11 g/m*3 11.7 C 0 km/h
306 01-03-2003 15:13:10 11.8 C 7.16 g/m*3 11.8 C 0 km/h
307 01-03-2003 15:14:37 11.8 C 7.16 g/m*3 11.8 C 0 km/h
308 01-03-2003 15:19:10 11.7 C 7.22 g/m*3 11.7 C 0 km/h
309 01-03-2003 15:20:37 11.7 C 7.22 g/m*3 11.7 C 0 km/h
310 01-03-2003 15:25:10 11.8 C 7.16 g/m*3 11.8 C 0 km/h
311 01-03-2003 15:26:37 11.8 C 7.16 g/m*3 11.8 C 0 km/h
312 01-03-2003 15:31:10 11.9 C 7.2 g/m*3 11.9 C 0 km/h
313 01-03-2003 15:32:37 11.9 C 7.2 g/m*3 11.9 C 0 km/h
314 01-03-2003 15:37:10 11.8 C 6.95 g/m*3 11.8 C 0 km/h
315 01-03-2003 15:38:37 11.8 C 6.95 g/m*3 11.8 C 0 km/h
316 01-03-2003 15:43:10 11.7 C 7.01 g/m*3 11.7 C 0 km/h
317 01-03-2003 15:44:37 11.7 C 7.01 g/m*3 11.7 C 0 km/h
318 01-03-2003 15:49:10 11.7 C 7.01 g/m*3 11.7 C 0 km/h
319 01-03-2003 15:50:37 11.7 C 7.01 g/m*3 11.7 C 0 km/h
320 01-03-2003 15:55:10 11.6 C 6.96 g/m*3 11.6 C 0 km/h
321 01-03-2003 15:56:37 11.6 C 6.96 g/m*3 11.6 C 0 km/h
322 01-03-2003 16:01:11 11.6 C 7.07 g/m*3 11.6 C 0 km/h
323 01-03-2003 16:02:37 11.6 C 7.07 g/m*3 11.6 C 0 km/h
324 01-03-2003 16:07:11 11.5 C 6.92 g/m*3 11.5 C 0 km/h
325 01-03-2003 16:08:37 11.5 C 6.92 g/m*3 11.5 C 0 km/h
Sensor: Nr:Datum:Temp:Abs-Feuchte:Windchill:Wind:
Aussen-T/F 326 01-03-2003 16:13:11 11.5 C 7.02 g/m*3 11.5 C 0 km/h
327 01-03-2003 16:14:37 11.5 C 7.02 g/m*3 11.5 C 0 km/h
328 01-03-2003 16:19:11 11.4 C 6.98 g/m*3 11.4 C 0 km/h
329 01-03-2003 16:20:37 11.4 C 6.98 g/m*3 11.4 C 0 km/h
330 01-03-2003 16:25:11 11.4 C 6.88 g/m*3 11.4 C 0 km/h
331 01-03-2003 16:26:37 11.4 C 6.88 g/m*3 11.4 C 0 km/h
332 01-03-2003 16:31:11 11.4 C 6.88 g/m*3 11.4 C 0 km/h
333 01-03-2003 16:32:37 11.4 C 6.88 g/m*3 11.4 C 0 km/h
334 01-03-2003 16:37:11 11.4 C 6.88 g/m*3 11.4 C 0 km/h
335 01-03-2003 16:38:37 11.4 C 6.88 g/m*3 11.4 C 0 km/h
336 01-03-2003 16:43:11 11.2 C 6.79 g/m*3 11.2 C 0 km/h
337 01-03-2003 16:44:37 11.2 C 6.79 g/m*3 11.2 C 0 km/h
338 01-03-2003 16:49:11 11.2 C 6.89 g/m*3 11.2 C 0 km/h
339 01-03-2003 16:50:37 11.2 C 6.89 g/m*3 11.2 C 0 km/h
340 01-03-2003 16:55:11 11.2 C 6.89 g/m*3 11.2 C 0 km/h
341 01-03-2003 16:56:37 11.2 C 6.89 g/m*3 11.2 C 0 km/h
342 01-03-2003 17:01:11 11.1 C 6.85 g/m*3 11.1 C 0 km/h
343 01-03-2003 17:02:37 11.1 C 6.85 g/m*3 11.1 C 0 km/h
344 01-03-2003 17:07:11 11 C 6.91 g/m*3 11 C 0 km/h
345 01-03-2003 17:08:37 11 C 6.91 g/m*3 11 C 0 km/h
346 01-03-2003 17:13:11 10.9 C 6.96 g/m*3 10.9 C 0 km/h
347 01-03-2003 17:14:37 10.9 C 6.96 g/m*3 10.9 C 0 km/h
348 01-03-2003 17:19:11 10.8 C 7.02 g/m*3 10.8 C 0 km/h
349 01-03-2003 17:20:37 10.8 C 7.02 g/m*3 10.8 C 0 km/h
350 01-03-2003 17:25:11 10.7 C 6.97 g/m*3 10.7 C 0 km/h
Sensor: Nr:Datum:Temp:Abs-Feuchte:Windchill:Wind:
Aussen-T/F 351 01-03-2003 17:26:37 10.7 C 6.97 g/m*3 10.7 C 0 km/h
352 01-03-2003 17:31:11 10.5 C 6.89 g/m*3 10.5 C 0 km/h
353 01-03-2003 17:32:37 10.5 C 6.89 g/m*3 10.5 C 0 km/h
354 01-03-2003 17:37:11 10.5 C 6.98 g/m*3 10.5 C 0 km/h
355 01-03-2003 17:38:37 10.5 C 6.98 g/m*3 10.5 C 0 km/h
356 01-03-2003 17:43:11 10.4 C 6.94 g/m*3 10.4 C 0 km/h
357 01-03-2003 17:44:37 10.4 C 6.94 g/m*3 10.4 C 0 km/h
358 01-03-2003 17:49:11 10.4 C 6.84 g/m*3 10.4 C 0 km/h
359 01-03-2003 17:50:37 10.4 C 6.84 g/m*3 10.4 C 0 km/h
360 01-03-2003 17:55:11 10.3 C 6.8 g/m*3 10.3 C 0 km/h
361 01-03-2003 17:56:37 10.3 C 6.8 g/m*3 10.3 C 0 km/h
362 01-03-2003 18:01:11 10.2 C 6.85 g/m*3 10.2 C 0 km/h
363 01-03-2003 18:02:37 10.2 C 6.85 g/m*3 10.2 C 0 km/h
364 01-03-2003 18:07:11 10.1 C 6.81 g/m*3 10.1 C 0 km/h
365 01-03-2003 18:08:37 10.1 C 6.81 g/m*3 10.1 C 0 km/h
366 01-03-2003 18:13:11 10 C 6.77 g/m*3 10 C 0 km/h
367 01-03-2003 18:14:37 10 C 6.77 g/m*3 10 C 0 km/h
368 01-03-2003 18:19:11 9.9 C 6.91 g/m*3 9.9 C 0 km/h
369 01-03-2003 18:20:37 9.9 C 6.91 g/m*3 9.9 C 0 km/h
370 01-03-2003 18:25:11 9.8 C 6.87 g/m*3 9.8 C 0 km/h
371 01-03-2003 18:26:37 9.8 C 6.87 g/m*3 9.8 C 0 km/h
372 01-03-2003 18:31:11 9.8 C 6.87 g/m*3 9.8 C 0 km/h
373 01-03-2003 18:32:37 9.8 C 6.87 g/m*3 9.8 C 0 km/h
374 01-03-2003 18:37:11 9.7 C 6.82 g/m*3 9.7 C 0 km/h
375 01-03-2003 18:38:37 9.7 C 6.82 g/m*3 9.7 C 0 km/h
Sensor: Nr:Datum:Temp:Abs-Feuchte:Windchill:Wind:
Aussen-T/F 376 01-03-2003 18:43:11 9.6 C 6.87 g/m*3 9.6 C 0 km/h
377 01-03-2003 18:44:37 9.6 C 6.87 g/m*3 9.6 C 0 km/h
378 01-03-2003 18:49:11 9.6 C 6.87 g/m*3 9.6 C 0 km/h
379 01-03-2003 18:50:37 9.6 C 6.87 g/m*3 9.6 C 0 km/h
380 01-03-2003 18:55:11 9.6 C 6.87 g/m*3 9.6 C 0 km/h
381 01-03-2003 18:56:37 9.6 C 6.87 g/m*3 9.6 C 0 km/h
382 01-03-2003 19:01:11 9.6 C 6.87 g/m*3 9.6 C 0 km/h
383 01-03-2003 19:02:37 9.6 C 6.87 g/m*3 9.6 C 0 km/h
384 01-03-2003 19:07:11 9.5 C 6.83 g/m*3 9.5 C 0 km/h
385 01-03-2003 19:08:37 9.5 C 6.83 g/m*3 9.5 C 0 km/h
386 01-03-2003 19:13:11 9.5 C 6.92 g/m*3 9.5 C 0 km/h
387 01-03-2003 19:14:37 9.5 C 6.92 g/m*3 9.5 C 0 km/h
388 01-03-2003 19:19:11 9.5 C 6.92 g/m*3 9.5 C 0 km/h
389 01-03-2003 19:20:37 9.5 C 6.92 g/m*3 9.5 C 0 km/h
390 01-03-2003 19:25:11 9.4 C 6.87 g/m*3 9.4 C 0 km/h
391 01-03-2003 19:26:37 9.4 C 6.87 g/m*3 9.4 C 0 km/h
392 01-03-2003 19:31:11 9.4 C 6.87 g/m*3 9.4 C 0 km/h
393 01-03-2003 19:32:37 9.4 C 6.87 g/m*3 9.4 C 0 km/h
394 01-03-2003 19:37:11 9.4 C 6.87 g/m*3 9.4 C 0 km/h
395 01-03-2003 19:38:37 9.4 C 6.87 g/m*3 9.4 C 0 km/h
396 01-03-2003 19:43:11 9.4 C 6.87 g/m*3 9.4 C 0 km/h
397 01-03-2003 19:44:37 9.4 C 6.87 g/m*3 9.4 C 0 km/h
398 01-03-2003 19:49:11 9.4 C 6.87 g/m*3 9.4 C 0 km/h
399 01-03-2003 19:50:37 9.4 C 6.87 g/m*3 9.4 C 0 km/h
400 01-03-2003 19:55:11 9.4 C 6.87 g/m*3 9.4 C 0 km/h
Sensor: Nr:Datum:Temp:Abs-Feuchte:Windchill:Wind:
Aussen-T/F 401 01-03-2003 19:56:37 9.4 C 6.87 g/m*3 9.4 C 0 km/h
402 01-03-2003 20:02:11 9.3 C 6.83 g/m*3 9.3 C 0 km/h
403 01-03-2003 20:02:37 9.3 C 6.83 g/m*3 9.3 C 0 km/h
404 01-03-2003 20:08:11 9.4 C 6.87 g/m*3 9.4 C 0 km/h
405 01-03-2003 20:08:37 9.4 C 6.87 g/m*3 9.4 C 0 km/h
406 01-03-2003 20:14:11 9.3 C 6.83 g/m*3 9.3 C 0 km/h
407 01-03-2003 20:14:37 9.3 C 6.83 g/m*3 9.3 C 0 km/h
408 01-03-2003 20:20:11 9.3 C 6.83 g/m*3 9.3 C 0 km/h
409 01-03-2003 20:20:37 9.3 C 6.83 g/m*3 9.3 C 0 km/h
410 01-03-2003 20:26:11 9.3 C 6.92 g/m*3 9.3 C 0 km/h
411 01-03-2003 20:26:37 9.3 C 6.92 g/m*3 9.3 C 0 km/h
412 01-03-2003 20:32:11 9.3 C 6.92 g/m*3 9.3 C 0 km/h
413 01-03-2003 20:32:37 9.3 C 6.92 g/m*3 9.3 C 0 km/h
414 01-03-2003 20:38:11 9.2 C 6.88 g/m*3 9.2 C 0 km/h
415 01-03-2003 20:38:37 9.2 C 6.88 g/m*3 9.2 C 0 km/h
416 01-03-2003 20:44:11 9.1 C 6.83 g/m*3 9.1 C 0 km/h
417 01-03-2003 20:44:37 9.1 C 6.83 g/m*3 9.1 C 0 km/h
418 01-03-2003 20:50:11 9.1 C 6.83 g/m*3 9.1 C 0 km/h
419 01-03-2003 20:50:37 9.1 C 6.83 g/m*3 9.1 C 0 km/h
420 01-03-2003 21:02:11 9 C 6.88 g/m*3 9 C 0 km/h
421 01-03-2003 21:02:37 9 C 6.88 g/m*3 9 C 0 km/h
422 01-03-2003 21:08:11 9 C 6.88 g/m*3 9 C 0 km/h
423 01-03-2003 21:08:37 9 C 6.88 g/m*3 9 C 0 km/h
424 01-03-2003 21:14:11 8.9 C 6.92 g/m*3 8.9 C 0 km/h
425 01-03-2003 21:14:37 8.9 C 6.92 g/m*3 8.9 C 0 km/h
Sensor: Nr:Datum:Temp:Abs-Feuchte:Windchill:Wind:
Aussen-T/F 426 01-03-2003 21:20:11 8.8 C 6.96 g/m*3 8.8 C 0 km/h
427 01-03-2003 21:20:37 8.8 C 6.96 g/m*3 8.8 C 0 km/h
428 01-03-2003 21:26:11 8.8 C 7.05 g/m*3 8.8 C 0 km/h
429 01-03-2003 21:26:37 8.8 C 7.05 g/m*3 8.8 C 0 km/h
430 01-03-2003 21:32:11 8.7 C 7.01 g/m*3 8.7 C 0 km/h
431 01-03-2003 21:32:37 8.7 C 7.01 g/m*3 8.7 C 0 km/h
432 01-03-2003 21:38:11 8.8 C 7.05 g/m*3 8.8 C 0 km/h
433 01-03-2003 21:38:37 8.8 C 7.05 g/m*3 8.8 C 0 km/h
434 01-03-2003 21:44:11 8.7 C 7.09 g/m*3 8.7 C 0 km/h
435 01-03-2003 21:44:37 8.7 C 7.09 g/m*3 8.7 C 0 km/h
436 01-03-2003 21:50:11 8.6 C 7.05 g/m*3 8.6 C 0 km/h
437 01-03-2003 21:50:37 8.6 C 7.05 g/m*3 8.6 C 0 km/h
438 01-03-2003 21:56:11 8.5 C 7.09 g/m*3 8.5 C 0 km/h
439 01-03-2003 21:56:37 8.5 C 7.09 g/m*3 8.5 C 0 km/h
440 01-03-2003 22:02:11 8.5 C 7.09 g/m*3 8.5 C 0 km/h
441 01-03-2003 22:02:37 8.5 C 7.09 g/m*3 8.5 C 0 km/h
442 01-03-2003 22:08:11 8.4 C 7.13 g/m*3 8.4 C 0 km/h
443 01-03-2003 22:08:37 8.4 C 7.13 g/m*3 8.4 C 0 km/h
444 01-03-2003 22:14:11 8.4 C 7.13 g/m*3 8.4 C 0 km/h
445 01-03-2003 22:14:37 8.4 C 7.13 g/m*3 8.4 C 0 km/h
446 01-03-2003 22:20:11 8.3 C 7.08 g/m*3 8.3 C 0 km/h
447 01-03-2003 22:20:37 8.3 C 7.08 g/m*3 8.3 C 0 km/h
448 01-03-2003 22:26:11 8.4 C 7.21 g/m*3 8.4 C 0 km/h
449 01-03-2003 22:26:37 8.4 C 7.21 g/m*3 8.4 C 0 km/h
450 01-03-2003 22:32:11 8.4 C 7.21 g/m*3 8.4 C 0 km/h
Sensor: Nr:Datum:Temp:Abs-Feuchte:Windchill:Wind:
Aussen-T/F 451 01-03-2003 22:32:37 8.4 C 7.21 g/m*3 8.4 C 0 km/h
452 01-03-2003 22:38:11 8.3 C 7.25 g/m*3 8.3 C 0 km/h
453 01-03-2003 22:38:37 8.3 C 7.25 g/m*3 8.3 C 0 km/h
454 01-03-2003 22:44:11 8.3 C 7.25 g/m*3 8.3 C 0 km/h
455 01-03-2003 22:44:37 8.3 C 7.25 g/m*3 8.3 C 0 km/h
456 01-03-2003 22:50:11 8.3 C 7.25 g/m*3 8.3 C 0 km/h
457 01-03-2003 22:50:37 8.3 C 7.25 g/m*3 8.3 C 0 km/h
458 01-03-2003 22:56:11 8.2 C 7.2 g/m*3 8.2 C 0 km/h
459 01-03-2003 22:56:37 8.2 C 7.2 g/m*3 8.2 C 0 km/h
460 01-03-2003 23:02:11 8.3 C 7.25 g/m*3 8.3 C 0 km/h
461 01-03-2003 23:02:37 8.3 C 7.25 g/m*3 8.3 C 0 km/h
462 01-03-2003 23:08:11 8.3 C 7.33 g/m*3 8.3 C 0 km/h
463 01-03-2003 23:08:37 8.3 C 7.33 g/m*3 8.3 C 0 km/h
464 01-03-2003 23:14:11 8.2 C 7.29 g/m*3 8.2 C 0 km/h
465 01-03-2003 23:14:37 8.2 C 7.29 g/m*3 8.2 C 0 km/h
466 01-03-2003 23:20:11 8.2 C 7.37 g/m*3 8.2 C 0 km/h
467 01-03-2003 23:20:37 8.2 C 7.37 g/m*3 8.2 C 0 km/h
468 01-03-2003 23:26:11 8.2 C 7.37 g/m*3 8.2 C 0 km/h
469 01-03-2003 23:26:37 8.2 C 7.37 g/m*3 8.2 C 0 km/h
470 01-03-2003 23:32:11 8.1 C 7.32 g/m*3 8.1 C 0 km/h
471 01-03-2003 23:32:37 8.1 C 7.32 g/m*3 8.1 C 0 km/h
472 01-03-2003 23:38:11 8.1 C 7.32 g/m*3 8.1 C 0 km/h
473 01-03-2003 23:38:37 8.1 C 7.32 g/m*3 8.1 C 0 km/h
474 01-03-2003 23:44:11 8.1 C 7.32 g/m*3 8.1 C 0 km/h
475 01-03-2003 23:44:37 8.1 C 7.32 g/m*3 8.1 C 0 km/h
Sensor: Nr:Datum:Temp:Abs-Feuchte:Windchill:Wind:
Aussen-T/F 476 01-03-2003 23:50:11 8.1 C 7.32 g/m*3 8.1 C 0 km/h
477 01-03-2003 23:50:37 8.1 C 7.32 g/m*3 8.1 C 0 km/h
478 01-03-2003 23:56:11 8.1 C 7.32 g/m*3 8.1 C 0 km/h
479 01-03-2003 23:56:37 8.1 C 7.32 g/m*3 8.1 C 0 km/h
480 02-03-2003 00:02:11 8 C 7.28 g/m*3 8 C 0 km/h
481 02-03-2003 00:02:37 8 C 7.28 g/m*3 8 C 0 km/h
482 02-03-2003 00:08:11 8.1 C 7.32 g/m*3 8.1 C 0 km/h
483 02-03-2003 00:08:37 8.1 C 7.32 g/m*3 8.1 C 0 km/h
484 02-03-2003 00:14:11 8 C 7.36 g/m*3 8 C 0 km/h
485 02-03-2003 00:14:37 8 C 7.36 g/m*3 8 C 0 km/h
486 02-03-2003 00:20:11 7.9 C 7.39 g/m*3 7.9 C 0 km/h
487 02-03-2003 00:20:37 7.9 C 7.39 g/m*3 7.9 C 0 km/h
488 02-03-2003 00:26:11 7.9 C 7.39 g/m*3 7.9 C 0 km/h
489 02-03-2003 00:26:37 7.9 C 7.39 g/m*3 7.9 C 0 km/h
490 02-03-2003 00:32:11 7.9 C 7.39 g/m*3 7.9 C 0 km/h
491 02-03-2003 00:32:37 7.9 C 7.39 g/m*3 7.9 C 0 km/h
492 02-03-2003 00:38:11 7.8 C 7.35 g/m*3 7.8 C 0 km/h
493 02-03-2003 00:38:37 7.8 C 7.35 g/m*3 7.8 C 0 km/h
494 02-03-2003 00:44:11 7.8 C 7.35 g/m*3 7.8 C 0 km/h
495 02-03-2003 00:44:37 7.8 C 7.35 g/m*3 7.8 C 0 km/h
496 02-03-2003 00:50:11 7.8 C 7.43 g/m*3 7.8 C 0 km/h
497 02-03-2003 00:50:37 7.8 C 7.43 g/m*3 7.8 C 0 km/h
498 02-03-2003 00:56:11 7.9 C 7.39 g/m*3 7.9 C 0 km/h
499 02-03-2003 00:56:37 7.9 C 7.39 g/m*3 7.9 C 0 km/h
500 02-03-2003 01:02:11 7.9 C 7.39 g/m*3 7.9 C 0 km/h
Sensor: Nr:Datum:Temp:Abs-Feuchte:Windchill:Wind:
Aussen-T/F 501 02-03-2003 01:02:37 7.9 C 7.39 g/m*3 7.9 C 0 km/h
502 02-03-2003 01:08:11 7.8 C 7.35 g/m*3 7.8 C 0 km/h
503 02-03-2003 01:08:37 7.8 C 7.35 g/m*3 7.8 C 0 km/h
504 02-03-2003 01:14:11 7.8 C 7.35 g/m*3 7.8 C 0 km/h
505 02-03-2003 01:14:37 7.8 C 7.35 g/m*3 7.8 C 0 km/h
506 02-03-2003 01:20:11 7.8 C 7.43 g/m*3 7.8 C 0 km/h
507 02-03-2003 01:20:37 7.8 C 7.43 g/m*3 7.8 C 0 km/h
508 02-03-2003 01:26:11 7.7 C 7.38 g/m*3 7.7 C 0 km/h
509 02-03-2003 01:26:37 7.7 C 7.38 g/m*3 7.7 C 0 km/h
510 02-03-2003 01:32:11 7.8 C 7.43 g/m*3 7.8 C 0 km/h
511 02-03-2003 01:32:37 7.8 C 7.43 g/m*3 7.8 C 0 km/h
512 02-03-2003 01:38:11 7.8 C 7.43 g/m*3 7.8 C 0 km/h
513 02-03-2003 01:38:37 7.8 C 7.43 g/m*3 7.8 C 0 km/h
514 02-03-2003 01:44:11 7.8 C 7.43 g/m*3 7.8 C 0 km/h
515 02-03-2003 01:44:37 7.8 C 7.43 g/m*3 7.8 C 0 km/h
516 02-03-2003 01:50:11 7.7 C 7.38 g/m*3 7.7 C 0 km/h
517 02-03-2003 01:50:37 7.7 C 7.38 g/m*3 7.7 C 0 km/h
518 02-03-2003 01:56:11 7.8 C 7.43 g/m*3 7.8 C 0 km/h
519 02-03-2003 01:56:37 7.8 C 7.43 g/m*3 7.8 C 0 km/h
520 02-03-2003 02:02:11 7.8 C 7.43 g/m*3 7.8 C 0 km/h
521 02-03-2003 02:02:37 7.8 C 7.43 g/m*3 7.8 C 0 km/h
522 02-03-2003 02:08:11 7.7 C 7.38 g/m*3 7.7 C 0 km/h
523 02-03-2003 02:08:37 7.7 C 7.38 g/m*3 7.7 C 0 km/h
524 02-03-2003 02:14:11 7.6 C 7.33 g/m*3 7.6 C 0 km/h
525 02-03-2003 02:14:37 7.6 C 7.33 g/m*3 7.6 C 0 km/h
Sensor: Nr:Datum:Temp:Abs-Feuchte:Windchill:Wind:
Aussen-T/F 526 02-03-2003 02:20:11 7.6 C 7.33 g/m*3 7.6 C 0 km/h
527 02-03-2003 02:20:37 7.6 C 7.33 g/m*3 7.6 C 0 km/h
528 02-03-2003 02:26:11 7.6 C 7.33 g/m*3 7.6 C 0 km/h
529 02-03-2003 02:26:37 7.6 C 7.33 g/m*3 7.6 C 0 km/h
530 02-03-2003 02:32:11 7.7 C 7.38 g/m*3 7.7 C 0 km/h
531 02-03-2003 02:32:37 7.7 C 7.38 g/m*3 7.7 C 0 km/h
532 02-03-2003 02:38:11 7.8 C 7.43 g/m*3 7.8 C 0 km/h
533 02-03-2003 02:38:37 7.8 C 7.43 g/m*3 7.8 C 0 km/h
534 02-03-2003 02:44:11 7.7 C 7.38 g/m*3 7.7 C 0 km/h
535 02-03-2003 02:44:37 7.7 C 7.38 g/m*3 7.7 C 0 km/h
536 02-03-2003 02:50:11 7.7 C 7.38 g/m*3 7.7 C 0 km/h
537 02-03-2003 02:50:37 7.7 C 7.38 g/m*3 7.7 C 0 km/h
538 02-03-2003 02:56:11 7.8 C 7.35 g/m*3 7.8 C 0 km/h
539 02-03-2003 02:56:37 7.8 C 7.35 g/m*3 7.8 C 0 km/h
540 02-03-2003 03:02:11 7.8 C 7.35 g/m*3 7.8 C 0 km/h
541 02-03-2003 03:02:37 7.8 C 7.35 g/m*3 7.8 C 0 km/h
542 02-03-2003 03:08:11 8 C 7.36 g/m*3 8 C 0 km/h
543 02-03-2003 03:08:37 8 C 7.36 g/m*3 8 C 0 km/h
544 02-03-2003 03:14:11 7.8 C 7.26 g/m*3 7.8 C 0 km/h
545 02-03-2003 03:14:37 7.8 C 7.26 g/m*3 7.8 C 0 km/h
546 02-03-2003 03:20:11 7.7 C 7.22 g/m*3 7.7 C 0 km/h
547 02-03-2003 03:20:37 7.7 C 7.22 g/m*3 7.7 C 0 km/h
548 02-03-2003 03:26:11 7.7 C 7.22 g/m*3 7.7 C 0 km/h
549 02-03-2003 03:26:37 7.7 C 7.22 g/m*3 7.7 C 0 km/h
550 02-03-2003 03:32:11 7.7 C 7.3 g/m*3 7.7 C 0 km/h
Sensor: Nr:Datum:Temp:Abs-Feuchte:Windchill:Wind:
Aussen-T/F 551 02-03-2003 03:32:37 7.7 C 7.3 g/m*3 7.7 C 0 km/h
552 02-03-2003 03:38:11 7.7 C 7.3 g/m*3 7.7 C 0 km/h
553 02-03-2003 03:38:37 7.7 C 7.3 g/m*3 7.7 C 0 km/h
554 02-03-2003 03:44:11 7.6 C 7.25 g/m*3 7.6 C 0 km/h
555 02-03-2003 03:44:37 7.6 C 7.25 g/m*3 7.6 C 0 km/h
556 02-03-2003 03:50:11 7.6 C 7.25 g/m*3 7.6 C 0 km/h
557 02-03-2003 03:50:37 7.6 C 7.25 g/m*3 7.6 C 0 km/h
558 02-03-2003 03:56:11 7.5 C 7.2 g/m*3 7.5 C 0 km/h
559 02-03-2003 03:56:37 7.5 C 7.2 g/m*3 7.5 C 0 km/h
560 02-03-2003 04:02:11 7.5 C 7.2 g/m*3 7.5 C 0 km/h
561 02-03-2003 04:02:37 7.5 C 7.2 g/m*3 7.5 C 0 km/h
562 02-03-2003 04:08:11 7.5 C 7.2 g/m*3 7.5 C 0 km/h
563 02-03-2003 04:08:37 7.5 C 7.2 g/m*3 7.5 C 0 km/h
564 02-03-2003 04:14:11 7.6 C 7.25 g/m*3 7.6 C 0 km/h
565 02-03-2003 04:14:37 7.6 C 7.25 g/m*3 7.6 C 0 km/h
566 02-03-2003 04:20:11 7.6 C 7.25 g/m*3 7.6 C 0 km/h
567 02-03-2003 04:20:37 7.6 C 7.25 g/m*3 7.6 C 0 km/h
568 02-03-2003 04:26:11 7.5 C 7.12 g/m*3 7.5 C 0 km/h
569 02-03-2003 04:26:37 7.5 C 7.12 g/m*3 7.5 C 0 km/h
570 02-03-2003 04:32:11 7.5 C 7.2 g/m*3 7.5 C 0 km/h
571 02-03-2003 04:32:37 7.5 C 7.2 g/m*3 7.5 C 0 km/h
572 02-03-2003 04:38:11 7.5 C 7.2 g/m*3 7.5 C 0 km/h
573 02-03-2003 04:38:37 7.5 C 7.2 g/m*3 7.5 C 0 km/h
574 02-03-2003 04:44:11 7.4 C 7.16 g/m*3 7.4 C 0 km/h
575 02-03-2003 04:44:37 7.4 C 7.16 g/m*3 7.4 C 0 km/h
Sensor: Nr:Datum:Temp:Abs-Feuchte:Windchill:Wind:
Aussen-T/F 576 02-03-2003 04:50:11 7.4 C 7.16 g/m*3 7.4 C 0 km/h
577 02-03-2003 04:50:37 7.4 C 7.16 g/m*3 7.4 C 0 km/h
578 02-03-2003 04:56:11 7.4 C 7.16 g/m*3 7.4 C 0 km/h
579 02-03-2003 04:56:37 7.4 C 7.16 g/m*3 7.4 C 0 km/h
580 02-03-2003 05:02:11 7.5 C 7.2 g/m*3 7.5 C 0 km/h
581 02-03-2003 05:02:37 7.5 C 7.2 g/m*3 7.5 C 0 km/h
582 02-03-2003 05:08:11 7.5 C 7.2 g/m*3 7.5 C 0 km/h
583 02-03-2003 05:08:37 7.5 C 7.2 g/m*3 7.5 C 0 km/h
584 02-03-2003 05:14:11 7.5 C 7.2 g/m*3 7.5 C 0 km/h
585 02-03-2003 05:14:37 7.5 C 7.2 g/m*3 7.5 C 0 km/h
586 02-03-2003 05:20:11 7.5 C 7.2 g/m*3 7.5 C 0 km/h
587 02-03-2003 05:20:37 7.5 C 7.2 g/m*3 7.5 C 0 km/h
588 02-03-2003 05:26:11 7.4 C 7.16 g/m*3 7.4 C 0 km/h
589 02-03-2003 05:26:37 7.4 C 7.16 g/m*3 7.4 C 0 km/h
590 02-03-2003 05:32:11 7.3 C 7.11 g/m*3 7.3 C 0 km/h
591 02-03-2003 05:32:37 7.3 C 7.11 g/m*3 7.3 C 0 km/h
592 02-03-2003 05:38:11 7.3 C 7.11 g/m*3 7.3 C 0 km/h
593 02-03-2003 05:38:37 7.3 C 7.11 g/m*3 7.3 C 0 km/h
594 02-03-2003 05:44:11 7.1 C 7.02 g/m*3 7.1 C 0 km/h
595 02-03-2003 05:44:37 7.1 C 7.02 g/m*3 7.1 C 0 km/h
596 02-03-2003 05:50:11 7.1 C 7.02 g/m*3 7.1 C 0 km/h
597 02-03-2003 05:50:37 7.1 C 7.02 g/m*3 7.1 C 0 km/h
598 02-03-2003 05:56:11 7.2 C 7.14 g/m*3 7.2 C 0 km/h
599 02-03-2003 05:56:37 7.2 C 7.14 g/m*3 7.2 C 0 km/h
600 02-03-2003 06:02:11 7.3 C 7.19 g/m*3 7.3 C 0 km/h
Sensor: Nr:Datum:Temp:Abs-Feuchte:Windchill:Wind:
Aussen-T/F 601 02-03-2003 06:02:37 7.3 C 7.19 g/m*3 7.3 C 0 km/h
602 02-03-2003 06:08:11 7.3 C 7.19 g/m*3 7.3 C 0 km/h
603 02-03-2003 06:08:37 7.3 C 7.19 g/m*3 7.3 C 0 km/h
604 02-03-2003 06:14:11 7.2 C 7.14 g/m*3 7.2 C 0 km/h
605 02-03-2003 06:14:37 7.2 C 7.14 g/m*3 7.2 C 0 km/h
606 02-03-2003 06:20:11 7.2 C 7.14 g/m*3 7.2 C 0 km/h
607 02-03-2003 06:20:37 7.2 C 7.14 g/m*3 7.2 C 0 km/h
608 02-03-2003 06:26:11 7.2 C 7.14 g/m*3 7.2 C 0 km/h
609 02-03-2003 06:26:37 7.2 C 7.14 g/m*3 7.2 C 0 km/h
610 02-03-2003 06:32:11 7.2 C 7.14 g/m*3 7.2 C 0 km/h
611 02-03-2003 06:32:37 7.2 C 7.14 g/m*3 7.2 C 0 km/h
612 02-03-2003 06:38:11 7.3 C 7.19 g/m*3 7.3 C 0 km/h
613 02-03-2003 06:38:37 7.3 C 7.19 g/m*3 7.3 C 0 km/h
614 02-03-2003 06:44:11 7.4 C 7.32 g/m*3 7.4 C 0 km/h
615 02-03-2003 06:44:37 7.4 C 7.32 g/m*3 7.4 C 0 km/h
616 02-03-2003 06:50:11 7.3 C 7.27 g/m*3 7.3 C 0 km/h
617 02-03-2003 06:50:37 7.3 C 7.27 g/m*3 7.3 C 0 km/h
618 02-03-2003 06:56:11 7.3 C 7.27 g/m*3 7.3 C 0 km/h
619 02-03-2003 06:56:37 7.3 C 7.27 g/m*3 7.3 C 0 km/h
620 02-03-2003 07:02:11 7.2 C 7.14 g/m*3 7.2 C 0 km/h
621 02-03-2003 07:02:37 7.2 C 7.14 g/m*3 7.2 C 0 km/h
622 02-03-2003 07:08:11 7.3 C 7.19 g/m*3 7.3 C 0 km/h
623 02-03-2003 07:08:37 7.3 C 7.19 g/m*3 7.3 C 0 km/h
624 02-03-2003 07:14:11 7.3 C 7.27 g/m*3 7.3 C 0 km/h
625 02-03-2003 07:14:37 7.3 C 7.27 g/m*3 7.3 C 0 km/h
Sensor: Nr:Datum:Temp:Abs-Feuchte:Windchill:Wind:
Aussen-T/F 626 02-03-2003 07:20:11 7.4 C 7.32 g/m*3 7.4 C 0 km/h
627 02-03-2003 07:20:37 7.4 C 7.32 g/m*3 7.4 C 0 km/h
628 02-03-2003 07:26:11 7.3 C 7.27 g/m*3 7.3 C 0 km/h
629 02-03-2003 07:26:37 7.3 C 7.27 g/m*3 7.3 C 0 km/h
630 02-03-2003 07:32:11 7.4 C 7.32 g/m*3 7.4 C 0 km/h
631 02-03-2003 07:32:37 7.4 C 7.32 g/m*3 7.4 C 0 km/h
632 02-03-2003 07:38:11 7.3 C 7.27 g/m*3 7.3 C 0 km/h
633 02-03-2003 07:38:37 7.3 C 7.27 g/m*3 7.3 C 0 km/h
634 02-03-2003 07:44:11 7.4 C 7.32 g/m*3 7.4 C 0 km/h
635 02-03-2003 07:44:37 7.4 C 7.32 g/m*3 7.4 C 0 km/h
636 02-03-2003 07:50:11 7.4 C 7.32 g/m*3 7.4 C 0 km/h
637 02-03-2003 07:50:37 7.4 C 7.32 g/m*3 7.4 C 0 km/h
638 02-03-2003 07:56:11 7.5 C 7.36 g/m*3 7.5 C 0 km/h
639 02-03-2003 07:56:37 7.5 C 7.36 g/m*3 7.5 C 0 km/h
640 02-03-2003 08:02:11 7.5 C 7.36 g/m*3 7.5 C 0 km/h
641 02-03-2003 08:02:37 7.5 C 7.36 g/m*3 7.5 C 0 km/h
642 02-03-2003 08:08:11 7.3 C 7.19 g/m*3 7.3 C 0 km/h
643 02-03-2003 08:08:37 7.3 C 7.19 g/m*3 7.3 C 0 km/h
644 02-03-2003 08:14:11 7.5 C 7.28 g/m*3 7.5 C 0 km/h
645 02-03-2003 08:14:37 7.5 C 7.28 g/m*3 7.5 C 0 km/h
646 02-03-2003 08:20:11 7.5 C 7.28 g/m*3 7.5 C 0 km/h
647 02-03-2003 08:20:37 7.5 C 7.28 g/m*3 7.5 C 0 km/h
648 02-03-2003 08:26:11 7.4 C 7.24 g/m*3 7.4 C 0 km/h
649 02-03-2003 08:26:37 7.4 C 7.24 g/m*3 7.4 C 0 km/h
650 02-03-2003 08:32:11 7.5 C 7.28 g/m*3 7.5 C 0 km/h
Sensor: Nr:Datum:Temp:Abs-Feuchte:Windchill:Wind:
Aussen-T/F 651 02-03-2003 08:32:37 7.5 C 7.28 g/m*3 7.5 C 0 km/h
652 02-03-2003 08:38:11 7.6 C 7.33 g/m*3 7.6 C 0 km/h
653 02-03-2003 08:38:37 7.6 C 7.33 g/m*3 7.6 C 0 km/h
654 02-03-2003 08:44:11 7.6 C 7.33 g/m*3 7.6 C 0 km/h
655 02-03-2003 08:44:37 7.6 C 7.33 g/m*3 7.6 C 0 km/h
656 02-03-2003 08:50:11 7.7 C 7.38 g/m*3 7.7 C 0 km/h
657 02-03-2003 08:50:37 7.7 C 7.38 g/m*3 7.7 C 0 km/h
658 02-03-2003 08:56:11 7.8 C 7.43 g/m*3 7.8 C 0 km/h
659 02-03-2003 08:56:37 7.8 C 7.43 g/m*3 7.8 C 0 km/h
660 02-03-2003 09:02:11 7.7 C 7.38 g/m*3 7.7 C 0 km/h
661 02-03-2003 09:02:37 7.7 C 7.38 g/m*3 7.7 C 0 km/h
662 02-03-2003 09:08:11 7.9 C 7.47 g/m*3 7.9 C 0 km/h
663 02-03-2003 09:08:37 7.9 C 7.47 g/m*3 7.9 C 0 km/h
664 02-03-2003 09:14:11 8.1 C 7.57 g/m*3 8.1 C 0 km/h
665 02-03-2003 09:14:37 8.1 C 7.57 g/m*3 8.1 C 0 km/h
666 02-03-2003 09:20:11 8.2 C 7.62 g/m*3 8.2 C 0 km/h
667 02-03-2003 09:20:37 8.2 C 7.62 g/m*3 8.2 C 0 km/h
668 02-03-2003 09:26:11 8.6 C 7.82 g/m*3 8.6 C 0 km/h
669 02-03-2003 09:26:37 8.6 C 7.82 g/m*3 8.6 C 0 km/h
670 02-03-2003 09:32:11 8.8 C 7.92 g/m*3 8.8 C 0 km/h
671 02-03-2003 09:32:37 8.8 C 7.92 g/m*3 8.8 C 0 km/h
672 02-03-2003 09:38:11 9 C 7.85 g/m*3 9 C 0 km/h
673 02-03-2003 09:38:37 9 C 7.85 g/m*3 9 C 0 km/h
674 02-03-2003 09:44:11 9.1 C 7.9 g/m*3 9.1 C 0 km/h
675 02-03-2003 09:44:37 9.1 C 7.9 g/m*3 9.1 C 0 km/h
Sensor: Nr:Datum:Temp:Abs-Feuchte:Windchill:Wind:
Aussen-T/F 676 02-03-2003 09:50:11 9.5 C 8.1 g/m*3 9.5 C 0 km/h
677 02-03-2003 09:50:37 9.5 C 8.1 g/m*3 9.5 C 0 km/h
678 02-03-2003 09:56:11 9.6 C 8.06 g/m*3 9.6 C 0 km/h
679 02-03-2003 09:56:37 9.6 C 8.06 g/m*3 9.6 C 0 km/h
680 02-03-2003 10:02:11 10.1 C 7.66 g/m*3 10.1 C 0 km/h
681 02-03-2003 10:02:37 10.1 C 7.66 g/m*3 10.1 C 0 km/h
682 02-03-2003 10:08:11 10.2 C 7.52 g/m*3 10.2 C 0 km/h
683 02-03-2003 10:08:37 10.2 C 7.52 g/m*3 10.2 C 0 km/h
684 02-03-2003 10:14:11 10.4 C 7.61 g/m*3 10.4 C 0 km/h
685 02-03-2003 10:14:37 10.4 C 7.61 g/m*3 10.4 C 0 km/h
686 02-03-2003 10:20:11 10.8 C 7.81 g/m*3 10.8 C 0 km/h
687 02-03-2003 10:20:37 10.8 C 7.81 g/m*3 10.8 C 0 km/h
688 02-03-2003 10:26:11 11.1 C 7.96 g/m*3 11.1 C 0 km/h
689 02-03-2003 10:26:37 11.1 C 7.96 g/m*3 11.1 C 0 km/h
690 02-03-2003 10:32:11 11.3 C 7.65 g/m*3 11.3 C 0 km/h
691 02-03-2003 10:32:37 11.3 C 7.65 g/m*3 11.3 C 0 km/h
692 02-03-2003 10:38:11 11.4 C 7.6 g/m*3 11.4 C 0 km/h
693 02-03-2003 10:38:37 11.4 C 7.6 g/m*3 11.4 C 0 km/h
694 02-03-2003 10:44:11 11.5 C 7.44 g/m*3 11.5 C 0 km/h
695 02-03-2003 10:44:37 11.5 C 7.44 g/m*3 11.5 C 0 km/h
696 02-03-2003 10:50:11 11.4 C 7.08 g/m*3 11.4 C 0 km/h
697 02-03-2003 10:50:37 11.4 C 7.08 g/m*3 11.4 C 0 km/h
698 02-03-2003 10:56:11 11.1 C 6.85 g/m*3 11.1 C 0 km/h
699 02-03-2003 10:56:37 11.1 C 6.85 g/m*3 11.1 C 0 km/h
700 02-03-2003 11:02:11 11.2 C 6.99 g/m*3 11.2 C 0 km/h
Sensor: Nr:Datum:Temp:Abs-Feuchte:Windchill:Wind:
Aussen-T/F 701 02-03-2003 11:02:37 11.2 C 6.99 g/m*3 11.2 C 0 km/h
702 02-03-2003 11:08:11 11.2 C 6.89 g/m*3 11.2 C 0 km/h
703 02-03-2003 11:08:37 11.2 C 6.89 g/m*3 11.2 C 0 km/h
704 02-03-2003 11:14:11 11.2 C 6.89 g/m*3 11.2 C 0 km/h
705 02-03-2003 11:14:37 11.2 C 6.89 g/m*3 11.2 C 0 km/h
706 02-03-2003 11:20:11 11.1 C 6.75 g/m*3 11.1 C 0 km/h
707 02-03-2003 11:20:37 11.1 C 6.75 g/m*3 11.1 C 0 km/h
708 02-03-2003 11:26:11 11.2 C 6.79 g/m*3 11.2 C 0 km/h
709 02-03-2003 11:26:37 11.2 C 6.79 g/m*3 11.2 C 0 km/h
710 02-03-2003 11:32:11 11.3 C 6.73 g/m*3 11.3 C 0 km/h
711 02-03-2003 11:32:37 11.3 C 6.73 g/m*3 11.3 C 0 km/h
712 02-03-2003 11:38:11 11.5 C 6.92 g/m*3 11.5 C 0 km/h
713 02-03-2003 11:38:37 11.5 C 6.92 g/m*3 11.5 C 0 km/h
714 02-03-2003 11:44:11 11.8 C 7.05 g/m*3 11.8 C 0 km/h
715 02-03-2003 11:44:37 11.8 C 7.05 g/m*3 11.8 C 0 km/h
716 02-03-2003 11:50:11 11.9 C 6.99 g/m*3 11.9 C 0 km/h
717 02-03-2003 11:50:37 11.9 C 6.99 g/m*3 11.9 C 0 km/h
718 02-03-2003 11:56:11 11.7 C 6.9 g/m*3 11.7 C 0 km/h
719 02-03-2003 11:56:37 11.7 C 6.9 g/m*3 11.7 C 0 km/h
720 02-03-2003 12:02:37 11.3 C 6.94 g/m*3 11.3 C 0 km/h
721 02-03-2003 12:02:54 11.3 C 6.94 g/m*3 11.3 C 0 km/h
722 02-03-2003 12:08:37 11 C 7.01 g/m*3 11 C 0 km/h
723 02-03-2003 12:08:54 11 C 7.01 g/m*3 11 C 0 km/h
724 02-03-2003 12:14:37 10.4 C 7.04 g/m*3 10.4 C 0 km/h
725 02-03-2003 12:14:54 10.4 C 7.04 g/m*3 10.4 C 0 km/h
Sensor: Nr:Datum:Temp:Abs-Feuchte:Windchill:Wind:
Aussen-T/F 726 02-03-2003 12:20:37 10.2 C 7.23 g/m*3 10.2 C 0 km/h
727 02-03-2003 12:20:54 10.2 C 7.23 g/m*3 10.2 C 0 km/h
728 02-03-2003 12:26:37 10 C 7.24 g/m*3 10 C 0 km/h
729 02-03-2003 12:26:54 10 C 7.24 g/m*3 10 C 0 km/h
730 02-03-2003 12:32:37 9.6 C 7.24 g/m*3 9.6 C 0 km/h
731 02-03-2003 12:32:54 9.6 C 7.24 g/m*3 9.6 C 0 km/h
732 02-03-2003 12:38:37 9.7 C 7.56 g/m*3 9.7 C 0 km/h
733 02-03-2003 12:38:54 9.7 C 7.56 g/m*3 9.7 C 0 km/h
734 02-03-2003 12:44:37 10.1 C 7.75 g/m*3 10.1 C 0 km/h
735 02-03-2003 12:44:54 10.1 C 7.75 g/m*3 10.1 C 0 km/h
736 02-03-2003 12:50:37 10.4 C 7.81 g/m*3 10.4 C 0 km/h
737 02-03-2003 12:50:54 10.4 C 7.81 g/m*3 10.4 C 0 km/h
738 02-03-2003 12:56:37 10.5 C 7.66 g/m*3 10.5 C 0 km/h
739 02-03-2003 12:56:54 10.5 C 7.66 g/m*3 10.5 C 0 km/h
740 02-03-2003 13:02:37 10.6 C 7.61 g/m*3 10.6 C 0 km/h
741 02-03-2003 13:02:54 10.6 C 7.61 g/m*3 10.6 C 0 km/h
742 02-03-2003 13:08:37 10.6 C 7.42 g/m*3 10.6 C 0 km/h
743 02-03-2003 13:08:54 10.6 C 7.42 g/m*3 10.6 C 0 km/h
744 02-03-2003 13:14:37 10.7 C 7.27 g/m*3 10.7 C 0 km/h
745 02-03-2003 13:14:54 10.7 C 7.27 g/m*3 10.7 C 0 km/h
746 02-03-2003 13:20:37 11 C 7.61 g/m*3 11 C 0 km/h
747 02-03-2003 13:20:54 11 C 7.61 g/m*3 11 C 0 km/h
748 02-03-2003 13:26:37 11.1 C 7.25 g/m*3 11.1 C 0 km/h
749 02-03-2003 13:26:54 11.1 C 7.25 g/m*3 11.1 C 0 km/h
750 02-03-2003 13:32:37 11.1 C 7.25 g/m*3 11.1 C 0 km/h
Sensor: Nr:Datum:Temp:Abs-Feuchte:Windchill:Wind:
Aussen-T/F 751 02-03-2003 13:32:54 11.1 C 7.25 g/m*3 11.1 C 0 km/h
752 02-03-2003 13:38:37 11 C 7.21 g/m*3 11 C 0 km/h
753 02-03-2003 13:38:54 11 C 7.21 g/m*3 11 C 0 km/h
754 02-03-2003 13:44:37 11.1 C 7.55 g/m*3 11.1 C 0 km/h
755 02-03-2003 13:44:54 11.1 C 7.55 g/m*3 11.1 C 0 km/h
756 02-03-2003 13:50:37 10.8 C 7.61 g/m*3 10.8 C 0 km/h
757 02-03-2003 13:50:54 10.8 C 7.61 g/m*3 10.8 C 0 km/h
758 02-03-2003 13:56:37 10.6 C 7.52 g/m*3 10.6 C 0 km/h
759 02-03-2003 13:56:54 10.6 C 7.52 g/m*3 10.6 C 0 km/h
760 02-03-2003 14:02:37 10.2 C 7.33 g/m*3 10.2 C 0 km/h
761 02-03-2003 14:02:54 10.2 C 7.33 g/m*3 10.2 C 0 km/h
762 02-03-2003 14:08:37 10.2 C 7.33 g/m*3 10.2 C 0 km/h
763 02-03-2003 14:08:54 10.2 C 7.33 g/m*3 10.2 C 0 km/h
764 02-03-2003 14:14:37 9.9 C 7.66 g/m*3 9.9 C 0 km/h
765 02-03-2003 14:14:54 9.9 C 7.66 g/m*3 9.9 C 0 km/h
766 02-03-2003 14:20:37 9.7 C 7.65 g/m*3 9.7 C 0 km/h
767 02-03-2003 14:20:54 9.7 C 7.65 g/m*3 9.7 C 0 km/h
768 02-03-2003 14:26:37 10 C 7.8 g/m*3 10 C 0 km/h
769 02-03-2003 14:26:54 10 C 7.8 g/m*3 10 C 0 km/h
770 02-03-2003 14:32:37 10.1 C 7.56 g/m*3 10.1 C 0 km/h
771 02-03-2003 14:32:54 10.1 C 7.56 g/m*3 10.1 C 0 km/h
772 02-03-2003 14:38:37 10.1 C 7.28 g/m*3 10.1 C 0 km/h
773 02-03-2003 14:38:54 10.1 C 7.28 g/m*3 10.1 C 0 km/h
774 02-03-2003 14:44:37 9.8 C 7.24 g/m*3 9.8 C 0 km/h
775 02-03-2003 14:44:54 9.8 C 7.24 g/m*3 9.8 C 0 km/h
Sensor: Nr:Datum:Temp:Abs-Feuchte:Windchill:Wind:
Aussen-T/F 776 02-03-2003 14:50:37 9.6 C 7.15 g/m*3 9.6 C 0 km/h
777 02-03-2003 14:50:54 9.6 C 7.15 g/m*3 9.6 C 0 km/h
778 02-03-2003 14:56:37 9.6 C 7.24 g/m*3 9.6 C 0 km/h
779 02-03-2003 14:56:54 9.6 C 7.24 g/m*3 9.6 C 0 km/h
780 02-03-2003 15:02:37 9.4 C 7.05 g/m*3 9.4 C 0 km/h
781 02-03-2003 15:02:54 9.4 C 7.05 g/m*3 9.4 C 0 km/h
782 02-03-2003 15:08:10 9.5 C 7.1 g/m*3 9.5 C 0 km/h
783 02-03-2003 15:08:37 9.5 C 7.1 g/m*3 9.5 C 0 km/h
784 02-03-2003 15:14:10 9.6 C 7.33 g/m*3 9.6 C 0 km/h
785 02-03-2003 15:14:37 9.6 C 7.33 g/m*3 9.6 C 0 km/h
786 02-03-2003 15:20:10 9.4 C 6.87 g/m*3 9.4 C 0 km/h
787 02-03-2003 15:20:37 9.4 C 6.87 g/m*3 9.4 C 0 km/h
788 02-03-2003 15:26:10 9.5 C 6.64 g/m*3 9.5 C 0 km/h
789 02-03-2003 15:26:37 9.5 C 6.64 g/m*3 9.5 C 0 km/h
790 02-03-2003 15:32:10 9.7 C 6.64 g/m*3 9.7 C 0 km/h
791 02-03-2003 15:32:37 9.7 C 6.64 g/m*3 9.7 C 0 km/h
792 02-03-2003 15:38:10 9.6 C 6.5 g/m*3 9.6 C 0 km/h
793 02-03-2003 15:38:37 9.6 C 6.5 g/m*3 9.6 C 0 km/h
794 02-03-2003 15:44:10 9.9 C 6.82 g/m*3 9.9 C 0 km/h
795 02-03-2003 15:44:37 9.9 C 6.82 g/m*3 9.9 C 0 km/h
796 02-03-2003 15:50:10 10 C 6.58 g/m*3 10 C 0 km/h
797 02-03-2003 15:50:37 10 C 6.58 g/m*3 10 C 0 km/h
798 02-03-2003 15:56:10 10 C 6.58 g/m*3 10 C 0 km/h
799 02-03-2003 15:56:37 10 C 6.58 g/m*3 10 C 0 km/h
800 02-03-2003 16:02:02 9.9 C 6.54 g/m*3 9.9 C 0 km/h
Sensor: Nr:Datum:Temp:Abs-Feuchte:Windchill:Wind:
Aussen-T/F 801 02-03-2003 16:02:37 9.9 C 6.54 g/m*3 9.9 C 0 km/h
802 02-03-2003 16:08:02 9.7 C 6.45 g/m*3 9.7 C 0 km/h
803 02-03-2003 16:08:37 9.7 C 6.45 g/m*3 9.7 C 0 km/h
804 02-03-2003 16:14:02 9.7 C 6.64 g/m*3 9.7 C 0 km/h
805 02-03-2003 16:14:37 9.7 C 6.64 g/m*3 9.7 C 0 km/h
806 02-03-2003 16:20:02 9.7 C 6.55 g/m*3 9.7 C 0 km/h
807 02-03-2003 16:20:37 9.7 C 6.55 g/m*3 9.7 C 0 km/h
808 02-03-2003 16:26:02 9.7 C 6.55 g/m*3 9.7 C 0 km/h
809 02-03-2003 16:26:37 9.7 C 6.55 g/m*3 9.7 C 0 km/h
810 02-03-2003 16:32:02 9.8 C 6.59 g/m*3 9.8 C 0 km/h
811 02-03-2003 16:32:37 9.8 C 6.59 g/m*3 9.8 C 0 km/h
812 02-03-2003 16:38:02 10.1 C 6.52 g/m*3 10.1 C 0 km/h
813 02-03-2003 16:38:37 10.1 C 6.52 g/m*3 10.1 C 0 km/h
814 02-03-2003 16:44:02 10.1 C 6.34 g/m*3 10.1 C 0 km/h
815 02-03-2003 16:44:37 10.1 C 6.34 g/m*3 10.1 C 0 km/h
816 02-03-2003 16:50:02 10 C 6.3 g/m*3 10 C 0 km/h
817 02-03-2003 16:50:37 10 C 6.3 g/m*3 10 C 0 km/h
818 02-03-2003 16:56:02 9.9 C 6.44 g/m*3 9.9 C 0 km/h
819 02-03-2003 16:56:37 9.9 C 6.44 g/m*3 9.9 C 0 km/h
820 02-03-2003 17:02:02 9.8 C 6.4 g/m*3 9.8 C 0 km/h
821 02-03-2003 17:02:37 9.8 C 6.4 g/m*3 9.8 C 0 km/h
822 02-03-2003 17:08:02 9.7 C 6.55 g/m*3 9.7 C 0 km/h
823 02-03-2003 17:08:37 9.7 C 6.55 g/m*3 9.7 C 0 km/h
824 02-03-2003 17:14:02 9.6 C 6.32 g/m*3 9.6 C 0 km/h
825 02-03-2003 17:14:37 9.6 C 6.32 g/m*3 9.6 C 0 km/h
Sensor: Nr:Datum:Temp:Abs-Feuchte:Windchill:Wind:
Aussen-T/F 826 02-03-2003 17:20:02 9.6 C 6.32 g/m*3 9.6 C 0 km/h
827 02-03-2003 17:20:37 9.6 C 6.32 g/m*3 9.6 C 0 km/h
828 02-03-2003 17:26:02 9.5 C 6.28 g/m*3 9.5 C 0 km/h
829 02-03-2003 17:26:37 9.5 C 6.28 g/m*3 9.5 C 0 km/h
830 02-03-2003 17:32:02 9.3 C 6.2 g/m*3 9.3 C 0 km/h
831 02-03-2003 17:32:37 9.3 C 6.2 g/m*3 9.3 C 0 km/h
832 02-03-2003 17:38:02 9.2 C 6.16 g/m*3 9.2 C 0 km/h
833 02-03-2003 17:38:37 9.2 C 6.16 g/m*3 9.2 C 0 km/h
834 02-03-2003 17:44:32 9.3 C 6.2 g/m*3 9.3 C 0 km/h
835 02-03-2003 17:44:37 9.3 C 6.2 g/m*3 9.3 C 0 km/h
836 02-03-2003 17:50:32 9.3 C 6.2 g/m*3 9.3 C 0 km/h
837 02-03-2003 17:50:37 9.3 C 6.2 g/m*3 9.3 C 0 km/h
838 02-03-2003 17:56:37 9.2 C 6.16 g/m*3 9.2 C 0 km/h
839 02-03-2003 18:02:37 9.1 C 6.03 g/m*3 9.1 C 0 km/h
840 02-03-2003 18:08:37 9 C 5.99 g/m*3 9 C 0 km/h
841 02-03-2003 18:14:37 8.9 C 6.04 g/m*3 8.9 C 0 km/h
842 02-03-2003 18:20:37 8.6 C 5.93 g/m*3 8.6 C 0 km/h
843 02-03-2003 18:26:37 8.3 C 5.98 g/m*3 8.3 C 0 km/h
844 02-03-2003 18:32:37 8.2 C 5.95 g/m*3 8.2 C 0 km/h
845 02-03-2003 18:38:37 8.1 C 5.91 g/m*3 8.1 C 0 km/h
846 02-03-2003 18:44:37 8 C 5.87 g/m*3 8 C 0 km/h
847 02-03-2003 18:50:37 7.9 C 6 g/m*3 7.9 C 0 km/h
848 02-03-2003 18:56:37 7.8 C 6.04 g/m*3 7.8 C 0 km/h
849 02-03-2003 19:02:37 7.7 C 6 g/m*3 7.7 C 0 km/h
850 02-03-2003 19:08:37 7.8 C 5.96 g/m*3 7.8 C 0 km/h
Sensor: Nr:Datum:Temp:Abs-Feuchte:Windchill:Wind:
Aussen-T/F 851 02-03-2003 19:14:37 7.8 C 6.04 g/m*3 7.8 C 0 km/h
852 02-03-2003 19:20:37 7.7 C 6 g/m*3 7.7 C 0 km/h
853 02-03-2003 19:26:37 7.5 C 6 g/m*3 7.5 C 0 km/h
854 02-03-2003 19:32:37 7.5 C 6 g/m*3 7.5 C 0 km/h
855 02-03-2003 19:38:37 7.4 C 6.04 g/m*3 7.4 C 0 km/h
856 02-03-2003 19:44:37 7.5 C 6 g/m*3 7.5 C 0 km/h
857 02-03-2003 19:50:37 7.7 C 6 g/m*3 7.7 C 0 km/h
858 02-03-2003 19:56:37 7.6 C 5.88 g/m*3 7.6 C 0 km/h
859 02-03-2003 20:02:37 7.5 C 5.92 g/m*3 7.5 C 0 km/h
860 02-03-2003 20:08:37 7.5 C 5.92 g/m*3 7.5 C 0 km/h
861 02-03-2003 20:14:37 7.5 C 5.92 g/m*3 7.5 C 0 km/h
862 02-03-2003 20:20:37 7.4 C 5.88 g/m*3 7.4 C 0 km/h
863 02-03-2003 20:26:37 7.3 C 5.85 g/m*3 7.3 C 0 km/h
864 02-03-2003 20:32:37 7 C 5.81 g/m*3 7 C 0 km/h
865 02-03-2003 20:38:37 6.9 C 5.85 g/m*3 6.9 C 0 km/h
866 02-03-2003 20:44:37 6.6 C 5.81 g/m*3 6.6 C 0 km/h
867 02-03-2003 20:51:11 6.3 C 5.77 g/m*3 6.3 C 0 km/h
868 02-03-2003 20:57:11 6 C 5.73 g/m*3 6 C 0 km/h
869 02-03-2003 21:03:11 5.9 C 5.77 g/m*3 5.9 C 0 km/h
870 02-03-2003 21:09:11 5.9 C 5.84 g/m*3 5.9 C 0 km/h
871 02-03-2003 21:15:11 6 C 5.81 g/m*3 6 C 0 km/h
872 02-03-2003 21:21:11 6 C 5.81 g/m*3 6 C 0 km/h
873 02-03-2003 21:27:11 5.9 C 5.84 g/m*3 5.9 C 0 km/h
874 02-03-2003 21:33:11 5.9 C 5.84 g/m*3 5.9 C 0 km/h
875 02-03-2003 21:39:11 6 C 5.81 g/m*3 6 C 0 km/h
Sensor: Nr:Datum:Temp:Abs-Feuchte:Windchill:Wind:
Aussen-T/F 876 02-03-2003 21:45:11 6 C 5.81 g/m*3 6 C 0 km/h
877 02-03-2003 21:51:11 5.9 C 5.84 g/m*3 5.9 C 0 km/h
878 02-03-2003 21:57:11 5.9 C 5.91 g/m*3 5.9 C 0 km/h
879 02-03-2003 22:03:11 6 C 5.88 g/m*3 6 C 0 km/h
880 02-03-2003 22:09:11 6.3 C 5.92 g/m*3 6.3 C 0 km/h
881 02-03-2003 22:15:11 6.7 C 6 g/m*3 6.7 C 0 km/h
882 02-03-2003 22:21:11 6.7 C 5.93 g/m*3 6.7 C 0 km/h
883 02-03-2003 22:27:11 6.7 C 5.93 g/m*3 6.7 C 0 km/h
884 02-03-2003 22:39:11 6.8 C 5.89 g/m*3 6.8 C 0 km/h
885 02-03-2003 22:45:11 6.9 C 5.93 g/m*3 6.9 C 0 km/h
886 02-03-2003 22:51:11 6.9 C 5.93 g/m*3 6.9 C 0 km/h
887 02-03-2003 22:57:11 6.8 C 5.81 g/m*3 6.8 C 0 km/h
888 02-03-2003 23:03:11 6.7 C 5.85 g/m*3 6.7 C 0 km/h
889 02-03-2003 23:09:11 6.8 C 5.89 g/m*3 6.8 C 0 km/h
890 02-03-2003 23:15:11 6.8 C 5.89 g/m*3 6.8 C 0 km/h
891 02-03-2003 23:21:11 6.8 C 5.89 g/m*3 6.8 C 0 km/h
892 02-03-2003 23:27:11 6.7 C 5.85 g/m*3 6.7 C 0 km/h
893 02-03-2003 23:33:11 6.7 C 5.85 g/m*3 6.7 C 0 km/h
894 02-03-2003 23:39:11 6.7 C 5.85 g/m*3 6.7 C 0 km/h
895 02-03-2003 23:45:11 6.7 C 5.93 g/m*3 6.7 C 0 km/h
896 02-03-2003 23:51:11 6.7 C 5.93 g/m*3 6.7 C 0 km/h
897 02-03-2003 23:57:11 6.5 C 5.85 g/m*3 6.5 C 0 km/h
898 03-03-2003 00:03:11 6.4 C 5.89 g/m*3 6.4 C 0 km/h
899 03-03-2003 00:09:11 6.2 C 5.88 g/m*3 6.2 C 0 km/h
900 03-03-2003 00:15:11 6 C 5.95 g/m*3 6 C 0 km/h
Sensor: Nr:Datum:Temp:Abs-Feuchte:Windchill:Wind:
Aussen-T/F 901 03-03-2003 00:21:11 5.8 C 6.09 g/m*3 5.8 C 0 km/h
902 03-03-2003 00:27:11 5.8 C 6.16 g/m*3 5.8 C 0 km/h
903 03-03-2003 00:33:11 5.7 C 6.19 g/m*3 5.7 C 0 km/h
904 03-03-2003 00:39:11 5.6 C 6.22 g/m*3 5.6 C 0 km/h
905 03-03-2003 00:45:11 5.6 C 6.22 g/m*3 5.6 C 0 km/h
906 03-03-2003 00:51:11 5.6 C 6.22 g/m*3 5.6 C 0 km/h
907 03-03-2003 00:57:11 5.6 C 6.22 g/m*3 5.6 C 0 km/h
908 03-03-2003 01:03:11 5.6 C 6.22 g/m*3 5.6 C 0 km/h
909 03-03-2003 01:09:11 5.6 C 6.22 g/m*3 5.6 C 0 km/h
910 03-03-2003 01:15:11 5.6 C 6.22 g/m*3 5.6 C 0 km/h
911 03-03-2003 01:21:11 5.6 C 6.15 g/m*3 5.6 C 0 km/h
912 03-03-2003 01:27:11 5.5 C 6.11 g/m*3 5.5 C 0 km/h
913 03-03-2003 01:33:11 5.6 C 6.15 g/m*3 5.6 C 0 km/h
914 03-03-2003 01:39:11 5.6 C 6.15 g/m*3 5.6 C 0 km/h
915 03-03-2003 01:45:11 5.6 C 6.15 g/m*3 5.6 C 0 km/h
916 03-03-2003 01:51:11 5.6 C 6.15 g/m*3 5.6 C 0 km/h
917 03-03-2003 01:57:11 5.6 C 6.15 g/m*3 5.6 C 0 km/h
918 03-03-2003 02:03:11 5.6 C 6.15 g/m*3 5.6 C 0 km/h
919 03-03-2003 02:09:11 5.7 C 6.19 g/m*3 5.7 C 0 km/h
920 03-03-2003 02:15:11 5.7 C 6.12 g/m*3 5.7 C 0 km/h
921 03-03-2003 02:21:11 5.7 C 6.12 g/m*3 5.7 C 0 km/h
922 03-03-2003 02:27:11 5.7 C 6.12 g/m*3 5.7 C 0 km/h
923 03-03-2003 02:33:11 5.7 C 6.12 g/m*3 5.7 C 0 km/h
924 03-03-2003 02:39:11 5.7 C 6.12 g/m*3 5.7 C 0 km/h
925 03-03-2003 02:45:11 5.7 C 6.05 g/m*3 5.7 C 0 km/h
Sensor: Nr:Datum:Temp:Abs-Feuchte:Windchill:Wind:
Aussen-T/F 926 03-03-2003 02:51:11 5.8 C 6.09 g/m*3 5.8 C 0 km/h
927 03-03-2003 02:57:11 5.8 C 6.09 g/m*3 5.8 C 0 km/h
928 03-03-2003 03:03:11 5.9 C 6.06 g/m*3 5.9 C 0 km/h
929 03-03-2003 03:09:11 5.9 C 5.98 g/m*3 5.9 C 0 km/h
930 03-03-2003 03:15:11 5.9 C 5.98 g/m*3 5.9 C 0 km/h
931 03-03-2003 03:21:11 5.8 C 5.95 g/m*3 5.8 C 0 km/h
932 03-03-2003 03:27:11 5.8 C 6.02 g/m*3 5.8 C 0 km/h
933 03-03-2003 03:33:11 5.8 C 5.8 g/m*3 5.8 C 0 km/h
934 03-03-2003 03:39:11 5.9 C 5.84 g/m*3 5.9 C 0 km/h
935 03-03-2003 03:45:11 5.8 C 5.8 g/m*3 5.8 C 0 km/h
936 03-03-2003 03:51:11 5.8 C 5.73 g/m*3 5.8 C 0 km/h
937 03-03-2003 03:57:11 5.7 C 5.62 g/m*3 5.7 C 0 km/h
938 03-03-2003 04:03:11 5.7 C 5.62 g/m*3 5.7 C 0 km/h
939 03-03-2003 04:09:11 5.7 C 5.62 g/m*3 5.7 C 0 km/h
940 03-03-2003 04:15:11 5.8 C 5.59 g/m*3 5.8 C 0 km/h
941 03-03-2003 04:21:11 5.7 C 5.55 g/m*3 5.7 C 0 km/h
942 03-03-2003 04:27:11 5.8 C 5.59 g/m*3 5.8 C 0 km/h
943 03-03-2003 04:33:11 5.7 C 5.55 g/m*3 5.7 C 0 km/h
944 03-03-2003 04:39:11 5.7 C 5.55 g/m*3 5.7 C 0 km/h
945 03-03-2003 04:45:11 5.7 C 5.55 g/m*3 5.7 C 0 km/h
946 03-03-2003 04:51:11 5.7 C 5.62 g/m*3 5.7 C 0 km/h
947 03-03-2003 04:57:11 5.7 C 5.62 g/m*3 5.7 C 0 km/h
948 03-03-2003 05:03:11 5.7 C 5.62 g/m*3 5.7 C 0 km/h
949 03-03-2003 05:09:11 5.6 C 5.59 g/m*3 5.6 C 0 km/h
950 03-03-2003 05:15:11 5.6 C 5.51 g/m*3 5.6 C 0 km/h
Sensor: Nr:Datum:Temp:Abs-Feuchte:Windchill:Wind:
Aussen-T/F 951 03-03-2003 05:21:11 5.5 C 5.55 g/m*3 5.5 C 0 km/h
952 03-03-2003 05:27:11 5.4 C 5.44 g/m*3 5.4 C 0 km/h
953 03-03-2003 05:33:11 5.3 C 5.48 g/m*3 5.3 C 0 km/h
954 03-03-2003 05:39:11 5.2 C 5.51 g/m*3 5.2 C 0 km/h
955 03-03-2003 05:45:11 5.1 C 5.54 g/m*3 5.1 C 0 km/h
956 03-03-2003 05:51:11 5.2 C 5.58 g/m*3 5.2 C 0 km/h
957 03-03-2003 05:57:11 5.2 C 5.58 g/m*3 5.2 C 0 km/h
958 03-03-2003 06:03:11 5.1 C 5.54 g/m*3 5.1 C 0 km/h
959 03-03-2003 06:09:11 5.1 C 5.54 g/m*3 5.1 C 0 km/h
960 03-03-2003 06:15:11 5.1 C 5.54 g/m*3 5.1 C 0 km/h
961 03-03-2003 06:21:11 5.1 C 5.61 g/m*3 5.1 C 0 km/h
962 03-03-2003 06:27:11 5 C 5.57 g/m*3 5 C 0 km/h
963 03-03-2003 06:33:11 5 C 5.5 g/m*3 5 C 0 km/h
964 03-03-2003 06:39:11 5 C 5.57 g/m*3 5 C 0 km/h
965 03-03-2003 06:45:11 4.8 C 5.57 g/m*3 4.8 C 0 km/h
966 03-03-2003 06:51:11 4.7 C 5.6 g/m*3 4.7 C 0 km/h
967 03-03-2003 06:57:11 4.7 C 5.6 g/m*3 4.7 C 0 km/h
968 03-03-2003 07:03:11 4.7 C 5.6 g/m*3 4.7 C 0 km/h
969 03-03-2003 07:09:11 4.7 C 5.6 g/m*3 4.7 C 0 km/h
970 03-03-2003 07:15:11 4.7 C 5.66 g/m*3 4.7 C 0 km/h
971 03-03-2003 07:21:11 4.6 C 5.62 g/m*3 4.6 C 0 km/h
972 03-03-2003 07:27:11 4.6 C 5.62 g/m*3 4.6 C 0 km/h
973 03-03-2003 07:33:11 4.6 C 5.69 g/m*3 4.6 C 0 km/h
974 03-03-2003 07:39:11 4.6 C 5.62 g/m*3 4.6 C 0 km/h
975 03-03-2003 07:45:11 4.6 C 5.69 g/m*3 4.6 C 0 km/h
Sensor: Nr:Datum:Temp:Abs-Feuchte:Windchill:Wind:
Aussen-T/F 976 03-03-2003 07:51:11 4.5 C 5.65 g/m*3 4.5 C 0 km/h
977 03-03-2003 07:57:11 4.5 C 5.65 g/m*3 4.5 C 0 km/h
978 03-03-2003 08:03:11 4.6 C 5.69 g/m*3 4.6 C 0 km/h
979 03-03-2003 08:09:11 4.7 C 5.73 g/m*3 4.7 C 0 km/h
980 03-03-2003 08:15:11 4.7 C 5.73 g/m*3 4.7 C 0 km/h
981 03-03-2003 08:21:11 4.8 C 5.7 g/m*3 4.8 C 0 km/h
982 03-03-2003 08:27:11 4.9 C 5.74 g/m*3 4.9 C 0 km/h
983 03-03-2003 08:33:11 5 C 5.71 g/m*3 5 C 0 km/h
984 03-03-2003 08:39:11 5 C 5.71 g/m*3 5 C 0 km/h
985 03-03-2003 08:45:11 5 C 5.64 g/m*3 5 C 0 km/h
986 03-03-2003 08:51:11 5 C 5.64 g/m*3 5 C 0 km/h
987 03-03-2003 08:57:11 4.9 C 5.67 g/m*3 4.9 C 0 km/h
988 03-03-2003 09:03:11 4.9 C 5.74 g/m*3 4.9 C 0 km/h
989 03-03-2003 09:09:11 4.9 C 5.74 g/m*3 4.9 C 0 km/h
990 03-03-2003 09:15:11 4.9 C 5.74 g/m*3 4.9 C 0 km/h
991 03-03-2003 09:21:11 4.9 C 5.81 g/m*3 4.9 C 0 km/h
992 03-03-2003 09:27:11 4.9 C 5.81 g/m*3 4.9 C 0 km/h
993 03-03-2003 09:33:11 4.9 C 5.81 g/m*3 4.9 C 0 km/h
994 03-03-2003 09:39:11 4.9 C 5.81 g/m*3 4.9 C 0 km/h
995 03-03-2003 09:45:11 4.9 C 5.81 g/m*3 4.9 C 0 km/h
996 03-03-2003 09:51:11 4.9 C 5.81 g/m*3 4.9 C 0 km/h
997 03-03-2003 09:57:11 4.9 C 5.81 g/m*3 4.9 C 0 km/h
998 03-03-2003 10:03:11 4.9 C 5.81 g/m*3 4.9 C 0 km/h
999 03-03-2003 10:09:11 4.9 C 5.81 g/m*3 4.9 C 0 km/h
1000 03-03-2003 10:15:11 4.9 C 5.81 g/m*3 4.9 C 0 km/h
Sensor: Nr:Datum:Temp:Abs-Feuchte:Windchill:Wind:
Aussen-T/F 1001 03-03-2003 10:21:11 5 C 5.78 g/m*3 5 C 0 km/h
1002 03-03-2003 10:27:11 5 C 5.78 g/m*3 5 C 0 km/h
1003 03-03-2003 10:33:11 5 C 5.78 g/m*3 5 C 0 km/h
1004 03-03-2003 10:39:11 5.1 C 5.81 g/m*3 5.1 C 0 km/h
1005 03-03-2003 10:45:11 5.1 C 5.75 g/m*3 5.1 C 0 km/h
1006 03-03-2003 10:51:11 5.2 C 5.78 g/m*3 5.2 C 0 km/h
1007 03-03-2003 10:57:11 5.2 C 5.78 g/m*3 5.2 C 0 km/h
1008 03-03-2003 11:03:11 5.3 C 5.82 g/m*3 5.3 C 0 km/h
1009 03-03-2003 11:09:11 5.4 C 5.86 g/m*3 5.4 C 0 km/h
1010 03-03-2003 11:15:11 5.4 C 5.86 g/m*3 5.4 C 0 km/h
1011 03-03-2003 11:21:11 5.4 C 5.79 g/m*3 5.4 C 0 km/h
1012 03-03-2003 11:27:11 5.5 C 5.76 g/m*3 5.5 C 0 km/h
1013 03-03-2003 11:33:11 5.6 C 5.8 g/m*3 5.6 C 0 km/h
1014 03-03-2003 11:39:11 5.6 C 5.73 g/m*3 5.6 C 0 km/h
1015 03-03-2003 11:45:11 5.7 C 5.84 g/m*3 5.7 C 0 km/h
1016 03-03-2003 11:51:11 5.7 C 5.76 g/m*3 5.7 C 0 km/h
1017 03-03-2003 11:57:11 5.7 C 5.76 g/m*3 5.7 C 0 km/h
1018 03-03-2003 12:03:25 5.7 C 5.76 g/m*3 5.7 C 0 km/h
1019 03-03-2003 12:09:25 5.8 C 5.8 g/m*3 5.8 C 0 km/h
1020 03-03-2003 12:15:25 5.7 C 5.69 g/m*3 5.7 C 0 km/h
1021 03-03-2003 12:21:25 5.7 C 5.69 g/m*3 5.7 C 0 km/h
1022 03-03-2003 12:27:25 5.7 C 5.69 g/m*3 5.7 C 0 km/h
1023 03-03-2003 12:33:25 5.7 C 5.69 g/m*3 5.7 C 0 km/h
1024 03-03-2003 12:39:25 5.7 C 5.69 g/m*3 5.7 C 0 km/h
1025 03-03-2003 12:45:25 5.7 C 5.69 g/m*3 5.7 C 0 km/h
Sensor: Nr:Datum:Temp:Abs-Feuchte:Windchill:Wind:
Aussen-T/F 1026 03-03-2003 12:51:25 5.7 C 5.69 g/m*3 5.7 C 0 km/h
1027 03-03-2003 12:57:25 5.6 C 5.66 g/m*3 5.6 C 0 km/h
1028 03-03-2003 13:03:25 5.6 C 5.66 g/m*3 5.6 C 0 km/h
1029 03-03-2003 13:09:25 5.6 C 5.73 g/m*3 5.6 C 0 km/h
1030 03-03-2003 13:15:25 5.6 C 5.73 g/m*3 5.6 C 0 km/h
1031 03-03-2003 13:21:25 5.6 C 5.73 g/m*3 5.6 C 0 km/h
1032 03-03-2003 13:27:25 5.6 C 5.66 g/m*3 5.6 C 0 km/h
1033 03-03-2003 13:33:25 5.6 C 5.66 g/m*3 5.6 C 0 km/h
1034 03-03-2003 13:39:25 5.6 C 5.73 g/m*3 5.6 C 0 km/h
1035 03-03-2003 13:45:25 5.6 C 5.73 g/m*3 5.6 C 0 km/h
1036 03-03-2003 13:51:25 5.6 C 5.73 g/m*3 5.6 C 0 km/h
1037 03-03-2003 13:57:25 5.6 C 5.73 g/m*3 5.6 C 0 km/h
1038 03-03-2003 14:03:25 5.7 C 5.76 g/m*3 5.7 C 0 km/h
1039 03-03-2003 14:09:25 5.7 C 5.76 g/m*3 5.7 C 0 km/h
1040 03-03-2003 14:15:25 5.7 C 5.76 g/m*3 5.7 C 0 km/h
1041 03-03-2003 14:21:25 5.7 C 5.76 g/m*3 5.7 C 0 km/h
1042 03-03-2003 14:27:25 5.7 C 5.69 g/m*3 5.7 C 0 km/h
1043 03-03-2003 14:33:25 5.7 C 5.76 g/m*3 5.7 C 0 km/h
1044 03-03-2003 14:39:25 5.8 C 5.8 g/m*3 5.8 C 0 km/h
1045 03-03-2003 14:45:11 5.8 C 5.8 g/m*3 5.8 C 0 km/h
1046 03-03-2003 14:51:11 5.8 C 5.8 g/m*3 5.8 C 0 km/h
1047 03-03-2003 14:57:11 5.8 C 5.8 g/m*3 5.8 C 0 km/h
1048 03-03-2003 15:03:11 5.8 C 5.8 g/m*3 5.8 C 0 km/h
1049 03-03-2003 15:09:11 5.8 C 5.8 g/m*3 5.8 C 0 km/h
1050 03-03-2003 15:15:11 5.8 C 5.8 g/m*3 5.8 C 0 km/h
Sensor: Nr:Datum:Temp:Abs-Feuchte:Windchill:Wind:
Aussen-T/F 1051 03-03-2003 15:21:11 5.8 C 5.8 g/m*3 5.8 C 0 km/h
1052 03-03-2003 15:27:11 5.8 C 5.8 g/m*3 5.8 C 0 km/h
1053 03-03-2003 15:33:11 5.8 C 5.8 g/m*3 5.8 C 0 km/h
1054 03-03-2003 15:39:11 5.8 C 5.8 g/m*3 5.8 C 0 km/h
1055 03-03-2003 15:45:11 6.1 C 5.7 g/m*3 6.1 C 0 km/h
1056 03-03-2003 15:51:11 6.1 C 5.7 g/m*3 6.1 C 0 km/h
1057 03-03-2003 15:57:11 6.2 C 5.81 g/m*3 6.2 C 0 km/h
1058 03-03-2003 16:09:10 6.3 C 5.85 g/m*3 6.3 C 0 km/h
1059 03-03-2003 16:15:10 6.5 C 5.85 g/m*3 6.5 C 0 km/h
1060 03-03-2003 16:21:10 6.5 C 5.85 g/m*3 6.5 C 0 km/h
1061 03-03-2003 16:27:10 6.5 C 5.85 g/m*3 6.5 C 0 km/h
1062 03-03-2003 16:33:10 6.5 C 5.85 g/m*3 6.5 C 0 km/h
1063 03-03-2003 16:39:10 6.5 C 5.85 g/m*3 6.5 C 0 km/h
1064 03-03-2003 16:45:10 6.5 C 5.85 g/m*3 6.5 C 0 km/h
1065 03-03-2003 16:51:10 6.5 C 5.85 g/m*3 6.5 C 0 km/h
1066 03-03-2003 16:57:10 6.3 C 5.77 g/m*3 6.3 C 0 km/h
1067 03-03-2003 17:03:10 6.3 C 5.77 g/m*3 6.3 C 0 km/h
1068 03-03-2003 17:09:10 6.3 C 5.77 g/m*3 6.3 C 0 km/h
1069 03-03-2003 17:15:10 6 C 5.66 g/m*3 6 C 0 km/h
1070 03-03-2003 17:21:10 6 C 5.66 g/m*3 6 C 0 km/h
1071 03-03-2003 17:27:10 6 C 5.66 g/m*3 6 C 0 km/h
1072 03-03-2003 17:33:10 6 C 5.66 g/m*3 6 C 0 km/h
1073 03-03-2003 17:39:10 6 C 5.66 g/m*3 6 C 0 km/h
1074 03-03-2003 17:51:10 6 C 5.66 g/m*3 6 C 0 km/h
1075 03-03-2003 17:57:10 6 C 5.66 g/m*3 6 C 0 km/h
Sensor: Nr:Datum:Temp:Abs-Feuchte:Windchill:Wind:
Aussen-T/F 1076 03-03-2003 18:03:10 5.8 C 5.73 g/m*3 5.8 C 0 km/h
1077 03-03-2003 18:09:10 5.8 C 5.73 g/m*3 5.8 C 0 km/h
1078 03-03-2003 18:15:10 5.7 C 5.69 g/m*3 5.7 C 0 km/h
1079 03-03-2003 18:21:10 5.7 C 5.62 g/m*3 5.7 C 0 km/h
1080 03-03-2003 18:27:10 5.7 C 5.62 g/m*3 5.7 C 0 km/h
1081 03-03-2003 18:33:10 5.7 C 5.62 g/m*3 5.7 C 0 km/h
1082 03-03-2003 18:39:10 5.7 C 5.62 g/m*3 5.7 C 0 km/h
1083 03-03-2003 18:45:10 5.7 C 5.62 g/m*3 5.7 C 0 km/h
1084 03-03-2003 18:51:10 5.5 C 5.69 g/m*3 5.5 C 0 km/h
1085 03-03-2003 18:57:10 5.5 C 5.69 g/m*3 5.5 C 0 km/h
1086 03-03-2003 19:03:10 5.5 C 5.69 g/m*3 5.5 C 0 km/h
1087 03-03-2003 19:09:10 5.5 C 5.69 g/m*3 5.5 C 0 km/h
1088 03-03-2003 19:15:10 5.4 C 5.58 g/m*3 5.4 C 0 km/h
1089 03-03-2003 19:21:10 5.4 C 5.58 g/m*3 5.4 C 0 km/h
1090 03-03-2003 19:27:10 5.4 C 5.65 g/m*3 5.4 C 0 km/h
1091 03-03-2003 19:33:10 5.3 C 5.61 g/m*3 5.3 C 0 km/h
1092 03-03-2003 19:39:10 5.3 C 5.61 g/m*3 5.3 C 0 km/h
1093 03-03-2003 19:45:10 5.2 C 5.65 g/m*3 5.2 C 0 km/h
1094 03-03-2003 19:51:10 5.2 C 5.65 g/m*3 5.2 C 0 km/h
1095 03-03-2003 19:57:10 5.2 C 5.65 g/m*3 5.2 C 0 km/h
1096 03-03-2003 20:04:10 5.2 C 5.65 g/m*3 5.2 C 0 km/h
1097 03-03-2003 20:10:10 5.2 C 5.65 g/m*3 5.2 C 0 km/h
1098 03-03-2003 20:16:10 5.2 C 5.65 g/m*3 5.2 C 0 km/h
1099 03-03-2003 20:22:10 5.1 C 5.54 g/m*3 5.1 C 0 km/h
1100 03-03-2003 20:28:10 5.2 C 5.65 g/m*3 5.2 C 0 km/h
Sensor: Nr:Datum:Temp:Abs-Feuchte:Windchill:Wind:
Aussen-T/F 1101 03-03-2003 20:34:10 5.2 C 5.65 g/m*3 5.2 C 0 km/h
1102 03-03-2003 20:40:10 5.2 C 5.65 g/m*3 5.2 C 0 km/h
1103 03-03-2003 20:46:10 5.2 C 5.65 g/m*3 5.2 C 0 km/h
1104 03-03-2003 20:52:10 5.1 C 5.61 g/m*3 5.1 C 0 km/h
1105 03-03-2003 20:58:10 5.1 C 5.61 g/m*3 5.1 C 0 km/h
1106 03-03-2003 21:04:10 5.1 C 5.61 g/m*3 5.1 C 0 km/h
1107 03-03-2003 21:10:10 5 C 5.57 g/m*3 5 C 0 km/h
1108 03-03-2003 21:16:10 5 C 5.64 g/m*3 5 C 0 km/h
1109 03-03-2003 21:22:10 5 C 5.64 g/m*3 5 C 0 km/h
1110 03-03-2003 21:28:10 5 C 5.64 g/m*3 5 C 0 km/h
1111 03-03-2003 21:34:10 5 C 5.64 g/m*3 5 C 0 km/h
1112 03-03-2003 21:40:10 5 C 5.57 g/m*3 5 C 0 km/h
1113 03-03-2003 21:46:10 4.9 C 5.6 g/m*3 4.9 C 0 km/h
1114 03-03-2003 21:52:10 4.9 C 5.6 g/m*3 4.9 C 0 km/h
1115 03-03-2003 21:58:10 4.9 C 5.6 g/m*3 4.9 C 0 km/h
1116 03-03-2003 22:04:10 4.9 C 5.6 g/m*3 4.9 C 0 km/h
1117 03-03-2003 22:10:10 4.9 C 5.6 g/m*3 4.9 C 0 km/h
1118 03-03-2003 22:16:10 4.9 C 5.6 g/m*3 4.9 C 0 km/h
1119 03-03-2003 22:22:10 4.8 C 5.57 g/m*3 4.8 C 0 km/h
1120 03-03-2003 22:28:10 4.8 C 5.57 g/m*3 4.8 C 0 km/h
1121 03-03-2003 22:34:10 4.8 C 5.63 g/m*3 4.8 C 0 km/h
1122 03-03-2003 22:40:10 4.8 C 5.63 g/m*3 4.8 C 0 km/h
1123 03-03-2003 22:46:10 4.8 C 5.63 g/m*3 4.8 C 0 km/h
1124 03-03-2003 22:52:10 4.7 C 5.6 g/m*3 4.7 C 0 km/h
1125 03-03-2003 22:58:10 4.7 C 5.6 g/m*3 4.7 C 0 km/h
Sensor: Nr:Datum:Temp:Abs-Feuchte:Windchill:Wind:
Aussen-T/F 1126 03-03-2003 23:04:10 4.7 C 5.6 g/m*3 4.7 C 0 km/h
1127 03-03-2003 23:10:10 4.7 C 5.6 g/m*3 4.7 C 0 km/h
1128 03-03-2003 23:16:10 4.7 C 5.6 g/m*3 4.7 C 0 km/h
1129 03-03-2003 23:22:10 4.7 C 5.6 g/m*3 4.7 C 0 km/h
1130 03-03-2003 23:28:10 4.7 C 5.6 g/m*3 4.7 C 0 km/h
1131 03-03-2003 23:34:10 4.6 C 5.56 g/m*3 4.6 C 0 km/h
1132 03-03-2003 23:40:10 4.6 C 5.56 g/m*3 4.6 C 0 km/h
1133 03-03-2003 23:46:10 4.6 C 5.56 g/m*3 4.6 C 0 km/h
1134 03-03-2003 23:52:10 4.6 C 5.56 g/m*3 4.6 C 0 km/h
1135 03-03-2003 23:58:10 4.6 C 5.56 g/m*3 4.6 C 0 km/h
1136 04-03-2003 00:04:10 4.6 C 5.56 g/m*3 4.6 C 0 km/h
1137 04-03-2003 00:10:10 4.6 C 5.56 g/m*3 4.6 C 0 km/h
1138 04-03-2003 00:16:10 4.6 C 5.56 g/m*3 4.6 C 0 km/h
1139 04-03-2003 00:22:10 4.6 C 5.56 g/m*3 4.6 C 0 km/h
1140 04-03-2003 00:28:10 4.6 C 5.56 g/m*3 4.6 C 0 km/h
1141 04-03-2003 00:34:10 4.6 C 5.56 g/m*3 4.6 C 0 km/h
1142 04-03-2003 00:40:10 4.5 C 5.52 g/m*3 4.5 C 0 km/h
1143 04-03-2003 00:46:10 4.5 C 5.52 g/m*3 4.5 C 0 km/h
1144 04-03-2003 00:52:10 4.5 C 5.52 g/m*3 4.5 C 0 km/h
1145 04-03-2003 00:58:10 4.6 C 5.56 g/m*3 4.6 C 0 km/h
1146 04-03-2003 01:04:10 4.6 C 5.56 g/m*3 4.6 C 0 km/h
1147 04-03-2003 01:10:10 4.5 C 5.52 g/m*3 4.5 C 0 km/h
1148 04-03-2003 01:16:10 4.6 C 5.56 g/m*3 4.6 C 0 km/h
1149 04-03-2003 01:22:10 4.5 C 5.52 g/m*3 4.5 C 0 km/h
1150 04-03-2003 01:28:10 4.5 C 5.52 g/m*3 4.5 C 0 km/h
Sensor: Nr:Datum:Temp:Abs-Feuchte:Windchill:Wind:
Aussen-T/F 1151 04-03-2003 01:34:10 4.5 C 5.52 g/m*3 4.5 C 0 km/h
1152 04-03-2003 01:40:10 4.5 C 5.52 g/m*3 4.5 C 0 km/h
1153 04-03-2003 01:46:10 4.5 C 5.52 g/m*3 4.5 C 0 km/h
1154 04-03-2003 01:52:10 4.5 C 5.52 g/m*3 4.5 C 0 km/h
1155 04-03-2003 01:58:10 4.5 C 5.52 g/m*3 4.5 C 0 km/h
1156 04-03-2003 02:04:10 4.5 C 5.52 g/m*3 4.5 C 0 km/h
1157 04-03-2003 02:10:10 4.5 C 5.52 g/m*3 4.5 C 0 km/h
1158 04-03-2003 02:16:10 4.5 C 5.52 g/m*3 4.5 C 0 km/h
1159 04-03-2003 02:22:10 4.5 C 5.52 g/m*3 4.5 C 0 km/h
1160 04-03-2003 02:28:10 4.5 C 5.52 g/m*3 4.5 C 0 km/h
1161 04-03-2003 02:34:10 4.4 C 5.48 g/m*3 4.4 C 0 km/h
1162 04-03-2003 02:40:10 4.4 C 5.48 g/m*3 4.4 C 0 km/h
1163 04-03-2003 02:46:10 4.4 C 5.48 g/m*3 4.4 C 0 km/h
1164 04-03-2003 02:52:10 4.4 C 5.48 g/m*3 4.4 C 0 km/h
1165 04-03-2003 02:58:10 4.4 C 5.48 g/m*3 4.4 C 0 km/h
1166 04-03-2003 03:04:10 4.3 C 5.45 g/m*3 4.3 C 0 km/h
1167 04-03-2003 03:10:10 4.3 C 5.45 g/m*3 4.3 C 0 km/h
1168 04-03-2003 03:16:10 4.4 C 5.48 g/m*3 4.4 C 0 km/h
1169 04-03-2003 03:22:10 4.3 C 5.45 g/m*3 4.3 C 0 km/h
1170 04-03-2003 03:28:10 4.2 C 5.41 g/m*3 4.2 C 0 km/h
1171 04-03-2003 03:34:10 4.2 C 5.41 g/m*3 4.2 C 0 km/h
1172 04-03-2003 03:40:10 4.2 C 5.48 g/m*3 4.2 C 0 km/h
1173 04-03-2003 03:46:10 4.1 C 5.44 g/m*3 4.1 C 0 km/h
1174 04-03-2003 03:52:10 4 C 5.4 g/m*3 4 C 0 km/h
1175 04-03-2003 03:58:10 4 C 5.4 g/m*3 4 C 0 km/h
Sensor: Nr:Datum:Temp:Abs-Feuchte:Windchill:Wind:
Aussen-T/F 1176 04-03-2003 04:04:10 4 C 5.4 g/m*3 4 C 0 km/h
1177 04-03-2003 04:10:10 3.8 C 5.33 g/m*3 3.8 C 0 km/h
1178 04-03-2003 04:16:10 3.6 C 5.26 g/m*3 3.6 C 0 km/h
1179 04-03-2003 04:22:10 3.5 C 5.23 g/m*3 3.5 C 0 km/h
1180 04-03-2003 04:28:10 3.2 C 5.06 g/m*3 3.2 C 0 km/h
1181 04-03-2003 04:34:10 2.9 C 5.02 g/m*3 2.9 C 0 km/h
1182 04-03-2003 04:40:10 2.7 C 4.95 g/m*3 2.7 C 0 km/h
1183 04-03-2003 04:46:10 2.6 C 4.92 g/m*3 2.6 C 0 km/h
1184 04-03-2003 04:52:10 2.5 C 4.89 g/m*3 2.5 C 0 km/h
1185 04-03-2003 04:58:10 2.4 C 4.85 g/m*3 2.4 C 0 km/h
1186 04-03-2003 05:04:10 2.3 C 4.82 g/m*3 2.3 C 0 km/h
1187 04-03-2003 05:10:10 2.2 C 4.79 g/m*3 2.2 C 0 km/h
1188 04-03-2003 05:16:10 2 C 4.72 g/m*3 2 C 0 km/h
1189 04-03-2003 05:22:10 1.9 C 4.75 g/m*3 1.9 C 0 km/h
1190 04-03-2003 05:28:10 1.8 C 4.71 g/m*3 1.8 C 0 km/h
1191 04-03-2003 05:34:10 1.8 C 4.71 g/m*3 1.8 C 0 km/h
1192 04-03-2003 05:40:10 1.8 C 4.71 g/m*3 1.8 C 0 km/h
1193 04-03-2003 05:46:10 1.7 C 4.68 g/m*3 1.7 C 0 km/h
1194 04-03-2003 05:52:10 1.5 C 4.62 g/m*3 1.5 C 0 km/h
1195 04-03-2003 05:58:10 1.5 C 4.62 g/m*3 1.5 C 0 km/h
1196 04-03-2003 06:04:10 1.5 C 4.62 g/m*3 1.5 C 0 km/h
1197 04-03-2003 06:10:10 1.3 C 4.56 g/m*3 1.3 C 0 km/h
1198 04-03-2003 06:16:10 1.4 C 4.64 g/m*3 1.4 C 0 km/h
1199 04-03-2003 06:22:10 1.4 C 4.64 g/m*3 1.4 C 0 km/h
1200 04-03-2003 06:28:10 1.4 C 4.69 g/m*3 1.4 C 0 km/h
Sensor: Nr:Datum:Temp:Abs-Feuchte:Windchill:Wind:
Aussen-T/F 1201 04-03-2003 06:34:10 1.5 C 4.73 g/m*3 1.5 C 0 km/h
1202 04-03-2003 06:40:10 1.5 C 4.73 g/m*3 1.5 C 0 km/h
1203 04-03-2003 06:46:10 1.5 C 4.73 g/m*3 1.5 C 0 km/h
1204 04-03-2003 06:52:10 1.5 C 4.73 g/m*3 1.5 C 0 km/h
1205 04-03-2003 06:58:10 1.5 C 4.73 g/m*3 1.5 C 0 km/h
1206 04-03-2003 07:04:10 1.6 C 4.76 g/m*3 1.6 C 0 km/h
1207 04-03-2003 07:10:10 1.5 C 4.73 g/m*3 1.5 C 0 km/h
1208 04-03-2003 07:16:10 1.5 C 4.73 g/m*3 1.5 C 0 km/h
1209 04-03-2003 07:22:10 1.4 C 4.69 g/m*3 1.4 C 0 km/h
1210 04-03-2003 07:28:10 1.4 C 4.75 g/m*3 1.4 C 0 km/h
1211 04-03-2003 07:34:10 1.1 C 4.65 g/m*3 1.1 C 0 km/h
1212 04-03-2003 07:40:10 1.1 C 4.65 g/m*3 1.1 C 0 km/h
1213 04-03-2003 07:46:10 1 C 4.62 g/m*3 1 C 0 km/h
1214 04-03-2003 07:52:10 1 C 4.67 g/m*3 1 C 0 km/h
1215 04-03-2003 07:58:10 1 C 4.67 g/m*3 1 C 0 km/h
1216 04-03-2003 08:04:10 0.9 C 4.69 g/m*3 0.9 C 0 km/h
1217 04-03-2003 08:10:10 0.9 C 4.69 g/m*3 0.9 C 0 km/h
1218 04-03-2003 08:16:10 1 C 4.72 g/m*3 1 C 0 km/h
1219 04-03-2003 08:22:10 1.1 C 4.76 g/m*3 1.1 C 0 km/h
1220 04-03-2003 08:28:10 1.1 C 4.76 g/m*3 1.1 C 0 km/h
1221 04-03-2003 08:34:10 1.1 C 4.76 g/m*3 1.1 C 0 km/h
1222 04-03-2003 08:40:10 1 C 4.67 g/m*3 1 C 0 km/h
1223 04-03-2003 08:46:10 1.3 C 4.82 g/m*3 1.3 C 0 km/h
1224 04-03-2003 08:52:10 1.5 C 4.89 g/m*3 1.5 C 0 km/h
1225 04-03-2003 08:58:10 1.7 C 4.9 g/m*3 1.7 C 0 km/h
Sensor: Nr:Datum:Temp:Abs-Feuchte:Windchill:Wind:
Aussen-T/F 1226 04-03-2003 09:04:10 1.8 C 4.88 g/m*3 1.8 C 0 km/h
1227 04-03-2003 09:10:10 1.9 C 4.91 g/m*3 1.9 C 0 km/h
1228 04-03-2003 09:16:10 2 C 4.89 g/m*3 2 C 0 km/h
1229 04-03-2003 09:22:10 1.8 C 4.82 g/m*3 1.8 C 0 km/h
1230 04-03-2003 09:28:10 1.8 C 4.82 g/m*3 1.8 C 0 km/h
1231 04-03-2003 09:34:10 2.1 C 4.87 g/m*3 2.1 C 0 km/h
1232 04-03-2003 09:40:10 2.4 C 4.97 g/m*3 2.4 C 0 km/h
1233 04-03-2003 09:46:10 2.7 C 5.07 g/m*3 2.7 C 0 km/h
1234 04-03-2003 09:52:10 2.8 C 5.04 g/m*3 2.8 C 0 km/h
1235 04-03-2003 09:58:10 2.5 C 4.83 g/m*3 2.5 C 0 km/h
1236 04-03-2003 10:04:10 2.6 C 4.86 g/m*3 2.6 C 0 km/h
1237 04-03-2003 10:10:10 3 C 4.99 g/m*3 3 C 0 km/h
1238 04-03-2003 10:16:10 3.2 C 5.06 g/m*3 3.2 C 0 km/h
1239 04-03-2003 10:22:10 3.5 C 5.1 g/m*3 3.5 C 0 km/h
1240 04-03-2003 10:28:10 3.7 C 5.11 g/m*3 3.7 C 0 km/h
1241 04-03-2003 10:34:10 3.8 C 5.08 g/m*3 3.8 C 0 km/h
1242 04-03-2003 10:40:10 3.9 C 5.12 g/m*3 3.9 C 0 km/h
1243 04-03-2003 10:46:10 4.1 C 5.12 g/m*3 4.1 C 0 km/h
1244 04-03-2003 10:52:10 4.2 C 5.15 g/m*3 4.2 C 0 km/h
1245 04-03-2003 10:58:10 4.3 C 5.25 g/m*3 4.3 C 0 km/h
1246 04-03-2003 11:04:10 4.3 C 5.25 g/m*3 4.3 C 0 km/h
1247 04-03-2003 11:10:10 4.2 C 5.28 g/m*3 4.2 C 0 km/h
1248 04-03-2003 11:16:10 4.2 C 5.28 g/m*3 4.2 C 0 km/h
1249 04-03-2003 11:22:10 4.5 C 5.39 g/m*3 4.5 C 0 km/h
1250 04-03-2003 11:28:10 4.9 C 5.6 g/m*3 4.9 C 0 km/h
Sensor: Nr:Datum:Temp:Abs-Feuchte:Windchill:Wind:
Aussen-T/F 1251 04-03-2003 11:34:10 5.1 C 5.61 g/m*3 5.1 C 0 km/h
1252 04-03-2003 11:40:10 5.8 C 5.8 g/m*3 5.8 C 0 km/h
1253 04-03-2003 11:46:10 6.6 C 5.74 g/m*3 6.6 C 0 km/h
1254 04-03-2003 11:52:10 7 C 5.66 g/m*3 7 C 0 km/h
1255 04-03-2003 11:58:10 7 C 5.66 g/m*3 7 C 0 km/h
1256 04-03-2003 12:04:11 8.1 C 5.66 g/m*3 8.1 C 0 km/h
1257 04-03-2003 12:10:11 8.3 C 5.39 g/m*3 8.3 C 0 km/h
1258 04-03-2003 12:16:11 8.5 C 5.46 g/m*3 8.5 C 0 km/h
1259 04-03-2003 12:22:11 9.1 C 5.32 g/m*3 9.1 C 0 km/h
1260 04-03-2003 12:28:11 9.1 C 5.32 g/m*3 9.1 C 0 km/h
1261 04-03-2003 12:34:11 9.7 C 5.25 g/m*3 9.7 C 0 km/h
1262 04-03-2003 12:40:11 10.1 C 5.11 g/m*3 10.1 C 0 km/h
1263 04-03-2003 12:46:11 10.1 C 5.11 g/m*3 10.1 C 0 km/h
1264 04-03-2003 12:52:11 10.1 C 5.11 g/m*3 10.1 C 0 km/h
1265 04-03-2003 12:58:11 10.4 C 5.01 g/m*3 10.4 C 0 km/h
1266 04-03-2003 13:04:11 10.7 C 5.3 g/m*3 10.7 C 0 km/h
1267 04-03-2003 13:10:11 10.5 C 4.85 g/m*3 10.5 C 0 km/h
1268 04-03-2003 13:16:11 11 C 5.1 g/m*3 11 C 0 km/h
1269 04-03-2003 13:22:11 11.1 C 5.04 g/m*3 11.1 C 0 km/h
1270 04-03-2003 13:28:11 11.5 C 4.96 g/m*3 11.5 C 0 km/h
1271 04-03-2003 13:34:11 11.7 C 5.02 g/m*3 11.7 C 0 km/h
1272 04-03-2003 13:40:11 11.6 C 4.78 g/m*3 11.6 C 0 km/h
1273 04-03-2003 13:46:11 11.4 C 4.72 g/m*3 11.4 C 0 km/h
1274 04-03-2003 13:52:11 11.4 C 4.72 g/m*3 11.4 C 0 km/h
1275 04-03-2003 13:58:11 11.4 C 4.82 g/m*3 11.4 C 0 km/h
Sensor: Nr:Datum:Temp:Abs-Feuchte:Windchill:Wind:
Aussen-T/F 1276 04-03-2003 14:04:11 11.5 C 4.85 g/m*3 11.5 C 0 km/h
1277 04-03-2003 14:10:11 11.8 C 4.84 g/m*3 11.8 C 0 km/h
1278 04-03-2003 14:16:11 12.2 C 4.96 g/m*3 12.2 C 0 km/h
1279 04-03-2003 14:22:11 12.1 C 4.61 g/m*3 12.1 C 0 km/h
1280 04-03-2003 14:28:11 12.2 C 4.75 g/m*3 12.2 C 0 km/h
1281 04-03-2003 14:34:11 12.6 C 4.76 g/m*3 12.6 C 0 km/h
1282 04-03-2003 14:40:11 12.7 C 4.68 g/m*3 12.7 C 0 km/h
1283 04-03-2003 14:46:11 13 C 4.76 g/m*3 13 C 0 km/h
1284 04-03-2003 14:52:11 12.8 C 4.59 g/m*3 12.8 C 0 km/h
1285 04-03-2003 14:58:11 12.6 C 4.65 g/m*3 12.6 C 0 km/h
1286 04-03-2003 15:04:11 12.5 C 4.73 g/m*3 12.5 C 0 km/h
1287 04-03-2003 15:10:11 12.7 C 4.68 g/m*3 12.7 C 0 km/h
1288 04-03-2003 15:16:11 12.9 C 4.73 g/m*3 12.9 C 0 km/h
1289 04-03-2003 15:22:11 13.3 C 4.85 g/m*3 13.3 C 0 km/h
1290 04-03-2003 15:28:11 13.2 C 4.82 g/m*3 13.2 C 0 km/h
1291 04-03-2003 15:34:11 13.6 C 4.94 g/m*3 13.6 C 0 km/h
1292 04-03-2003 15:40:11 13.4 C 4.77 g/m*3 13.4 C 0 km/h
1293 04-03-2003 15:46:11 13.4 C 4.77 g/m*3 13.4 C 0 km/h
1294 04-03-2003 15:52:11 13.3 C 4.74 g/m*3 13.3 C 0 km/h
1295 04-03-2003 15:58:11 13.2 C 4.71 g/m*3 13.2 C 0 km/h
1296 04-03-2003 16:04:11 13.2 C 4.82 g/m*3 13.2 C 0 km/h
1297 04-03-2003 16:10:11 13.3 C 4.74 g/m*3 13.3 C 0 km/h
1298 04-03-2003 16:16:11 13.2 C 4.82 g/m*3 13.2 C 0 km/h
1299 04-03-2003 16:22:11 13.2 C 4.82 g/m*3 13.2 C 0 km/h
1300 04-03-2003 16:28:11 12.6 C 4.76 g/m*3 12.6 C 0 km/h
Sensor: Nr:Datum:Temp:Abs-Feuchte:Windchill:Wind:
Aussen-T/F 1301 04-03-2003 16:34:11 12.2 C 4.86 g/m*3 12.2 C 0 km/h
1302 04-03-2003 16:40:11 12 C 4.9 g/m*3 12 C 0 km/h
1303 04-03-2003 16:46:11 11.8 C 5.05 g/m*3 11.8 C 0 km/h
1304 04-03-2003 16:52:11 11.7 C 5.02 g/m*3 11.7 C 0 km/h
1305 04-03-2003 16:58:11 11.5 C 5.06 g/m*3 11.5 C 0 km/h
1306 04-03-2003 17:04:11 11.3 C 5.1 g/m*3 11.3 C 0 km/h
1307 04-03-2003 17:10:11 11.2 C 5.07 g/m*3 11.2 C 0 km/h
1308 04-03-2003 17:16:11 11 C 5.1 g/m*3 11 C 0 km/h
1309 04-03-2003 17:22:11 10.8 C 5.14 g/m*3 10.8 C 0 km/h
1310 04-03-2003 17:28:11 10.7 C 5.11 g/m*3 10.7 C 0 km/h
1311 04-03-2003 17:34:11 10.4 C 5.11 g/m*3 10.4 C 0 km/h
1312 04-03-2003 17:40:11 10.3 C 5.17 g/m*3 10.3 C 0 km/h
1313 04-03-2003 17:46:11 10.1 C 5.2 g/m*3 10.1 C 0 km/h
1314 04-03-2003 17:52:11 9.9 C 5.14 g/m*3 9.9 C 0 km/h
1315 04-03-2003 17:58:11 9.7 C 5.25 g/m*3 9.7 C 0 km/h
1316 04-03-2003 18:04:11 9.6 C 5.31 g/m*3 9.6 C 0 km/h
1317 04-03-2003 18:10:11 9.3 C 5.21 g/m*3 9.3 C 0 km/h
1318 04-03-2003 18:16:11 9.2 C 5.18 g/m*3 9.2 C 0 km/h
1319 04-03-2003 18:22:11 8.8 C 5.48 g/m*3 8.8 C 0 km/h
1320 04-03-2003 18:28:11 8.7 C 5.45 g/m*3 8.7 C 0 km/h
1321 04-03-2003 18:34:11 8.4 C 5.43 g/m*3 8.4 C 0 km/h
1322 04-03-2003 18:40:11 8.4 C 5.34 g/m*3 8.4 C 0 km/h
1323 04-03-2003 18:46:11 8.4 C 5.26 g/m*3 8.4 C 0 km/h
1324 04-03-2003 18:52:11 8.2 C 5.36 g/m*3 8.2 C 0 km/h
1325 04-03-2003 18:58:11 8.2 C 5.28 g/m*3 8.2 C 0 km/h
Sensor: Nr:Datum:Temp:Abs-Feuchte:Windchill:Wind:
Aussen-T/F 1326 04-03-2003 19:04:11 8.2 C 5.28 g/m*3 8.2 C 0 km/h
1327 04-03-2003 19:10:11 8.2 C 5.44 g/m*3 8.2 C 0 km/h
1328 04-03-2003 19:16:11 8.2 C 5.36 g/m*3 8.2 C 0 km/h
1329 04-03-2003 19:28:11 8.4 C 5.26 g/m*3 8.4 C 0 km/h
1330 04-03-2003 19:34:11 8.5 C 5.29 g/m*3 8.5 C 0 km/h
1331 04-03-2003 19:40:11 8.5 C 5.29 g/m*3 8.5 C 0 km/h
1332 04-03-2003 19:46:11 8.6 C 5.16 g/m*3 8.6 C 0 km/h
1333 04-03-2003 19:52:11 8.7 C 5.28 g/m*3 8.7 C 0 km/h
1334 04-03-2003 19:58:11 8.6 C 5.33 g/m*3 8.6 C 0 km/h
1335 05-03-2003 16:05:13 13.4 C 6.28 g/m*3 13.4 C 0 km/h
1336 05-03-2003 16:11:13 13.4 C 6.28 g/m*3 13.4 C 0 km/h
1337 05-03-2003 16:17:13 13.4 C 6.39 g/m*3 13.4 C 0 km/h
1338 05-03-2003 16:23:13 13.4 C 6.28 g/m*3 13.4 C 0 km/h
1339 05-03-2003 16:29:13 13.4 C 6.28 g/m*3 13.4 C 0 km/h
1340 05-03-2003 16:35:13 13.4 C 6.28 g/m*3 13.4 C 0 km/h
1341 05-03-2003 16:41:13 13.4 C 6.28 g/m*3 13.4 C 0 km/h
1342 05-03-2003 16:47:13 13.5 C 6.55 g/m*3 13.5 C 0 km/h
1343 05-03-2003 16:53:13 13.5 C 6.67 g/m*3 13.5 C 0 km/h
1344 05-03-2003 16:59:13 13.5 C 6.67 g/m*3 13.5 C 0 km/h
1345 05-03-2003 17:05:13 13.5 C 6.67 g/m*3 13.5 C 0 km/h
1346 05-03-2003 17:11:13 13.5 C 6.67 g/m*3 13.5 C 0 km/h
1347 05-03-2003 17:17:13 13.1 C 6.62 g/m*3 13.1 C 0 km/h
1348 05-03-2003 17:23:13 13.1 C 6.62 g/m*3 13.1 C 0 km/h
1349 05-03-2003 17:29:13 12.9 C 6.76 g/m*3 12.9 C 0 km/h
1350 05-03-2003 17:35:13 12.7 C 6.79 g/m*3 12.7 C 0 km/h
Sensor: Nr:Datum:Temp:Abs-Feuchte:Windchill:Wind:
Aussen-T/F 1351 05-03-2003 17:41:13 12.5 C 6.82 g/m*3 12.5 C 0 km/h
1352 05-03-2003 17:47:13 12.4 C 6.77 g/m*3 12.4 C 0 km/h
1353 05-03-2003 17:53:13 12.2 C 6.8 g/m*3 12.2 C 0 km/h
1354 05-03-2003 17:59:13 12.1 C 6.76 g/m*3 12.1 C 0 km/h
1355 05-03-2003 18:05:13 12.1 C 6.86 g/m*3 12.1 C 0 km/h
1356 05-03-2003 18:11:13 12 C 6.82 g/m*3 12 C 0 km/h
1357 05-03-2003 18:17:13 11.8 C 6.84 g/m*3 11.8 C 0 km/h
1358 05-03-2003 18:23:13 11.7 C 6.9 g/m*3 11.7 C 0 km/h
1359 05-03-2003 18:29:13 11.6 C 6.86 g/m*3 11.6 C 0 km/h
1360 05-03-2003 18:35:13 11.5 C 6.92 g/m*3 11.5 C 0 km/h
1361 05-03-2003 18:41:13 11.4 C 6.88 g/m*3 11.4 C 0 km/h
1362 05-03-2003 18:47:13 11.4 C 6.88 g/m*3 11.4 C 0 km/h
1363 05-03-2003 18:53:13 11.3 C 6.94 g/m*3 11.3 C 0 km/h
1364 05-03-2003 18:59:13 11.3 C 6.94 g/m*3 11.3 C 0 km/h
1365 05-03-2003 19:05:13 11.2 C 6.89 g/m*3 11.2 C 0 km/h
1366 05-03-2003 19:11:13 11.3 C 6.94 g/m*3 11.3 C 0 km/h
1367 05-03-2003 19:17:13 11.2 C 6.89 g/m*3 11.2 C 0 km/h
1368 05-03-2003 19:23:13 11.2 C 6.89 g/m*3 11.2 C 0 km/h
1369 05-03-2003 19:29:13 11.3 C 6.94 g/m*3 11.3 C 0 km/h
1370 05-03-2003 19:35:13 11.3 C 7.04 g/m*3 11.3 C 0 km/h
1371 05-03-2003 19:41:13 11.1 C 6.95 g/m*3 11.1 C 0 km/h
1372 05-03-2003 19:47:13 11.1 C 6.95 g/m*3 11.1 C 0 km/h
1373 05-03-2003 19:53:13 11.1 C 6.95 g/m*3 11.1 C 0 km/h
1374 05-03-2003 19:59:13 11.1 C 6.95 g/m*3 11.1 C 0 km/h
1375 05-03-2003 20:06:12 11.1 C 6.95 g/m*3 11.1 C 0 km/h
Sensor: Nr:Datum:Temp:Abs-Feuchte:Windchill:Wind:
Aussen-T/F 1376 05-03-2003 20:12:12 11.1 C 6.95 g/m*3 11.1 C 0 km/h
1377 05-03-2003 20:18:12 11.1 C 6.95 g/m*3 11.1 C 0 km/h
1378 05-03-2003 20:24:12 11 C 6.91 g/m*3 11 C 0 km/h
1379 05-03-2003 20:30:12 10.9 C 6.96 g/m*3 10.9 C 0 km/h
1380 05-03-2003 20:36:12 10.9 C 6.96 g/m*3 10.9 C 0 km/h
1381 05-03-2003 20:42:12 10.9 C 6.96 g/m*3 10.9 C 0 km/h
1382 05-03-2003 20:48:12 10.9 C 6.96 g/m*3 10.9 C 0 km/h
1383 05-03-2003 20:54:12 10.9 C 6.96 g/m*3 10.9 C 0 km/h
1384 05-03-2003 21:06:12 11 C 6.91 g/m*3 11 C 0 km/h
1385 05-03-2003 21:12:12 10.9 C 6.96 g/m*3 10.9 C 0 km/h
1386 05-03-2003 21:18:12 10.9 C 6.96 g/m*3 10.9 C 0 km/h
1387 05-03-2003 21:24:12 10.8 C 6.92 g/m*3 10.8 C 0 km/h
1388 05-03-2003 21:30:12 10.9 C 6.96 g/m*3 10.9 C 0 km/h
1389 05-03-2003 21:36:12 11 C 6.81 g/m*3 11 C 0 km/h
1390 05-03-2003 21:42:12 11 C 6.81 g/m*3 11 C 0 km/h
1391 05-03-2003 21:48:12 11 C 6.81 g/m*3 11 C 0 km/h
1392 05-03-2003 21:54:12 10.9 C 6.76 g/m*3 10.9 C 0 km/h
1393 05-03-2003 22:00:12 10.8 C 6.72 g/m*3 10.8 C 0 km/h
1394 05-03-2003 22:06:12 10.5 C 6.69 g/m*3 10.5 C 0 km/h
1395 05-03-2003 22:12:12 10.3 C 6.61 g/m*3 10.3 C 0 km/h
1396 05-03-2003 22:18:12 10 C 6.58 g/m*3 10 C 0 km/h
1397 05-03-2003 22:24:12 10.2 C 6.66 g/m*3 10.2 C 0 km/h
1398 05-03-2003 22:30:12 10.2 C 6.66 g/m*3 10.2 C 0 km/h
1399 05-03-2003 22:36:12 10.2 C 6.66 g/m*3 10.2 C 0 km/h
1400 05-03-2003 22:42:12 10.2 C 6.57 g/m*3 10.2 C 0 km/h
Sensor: Nr:Datum:Temp:Abs-Feuchte:Windchill:Wind:
Aussen-T/F 1401 05-03-2003 22:48:12 10.2 C 6.57 g/m*3 10.2 C 0 km/h
1402 05-03-2003 22:54:12 10.1 C 6.52 g/m*3 10.1 C 0 km/h
1403 05-03-2003 23:00:12 10.2 C 6.47 g/m*3 10.2 C 0 km/h
1404 05-03-2003 23:06:12 10.2 C 6.57 g/m*3 10.2 C 0 km/h
1405 05-03-2003 23:12:12 10.2 C 6.57 g/m*3 10.2 C 0 km/h
1406 05-03-2003 23:18:12 10.1 C 6.52 g/m*3 10.1 C 0 km/h
1407 05-03-2003 23:24:12 10.1 C 6.52 g/m*3 10.1 C 0 km/h
1408 05-03-2003 23:30:12 9.6 C 6.41 g/m*3 9.6 C 0 km/h
1409 05-03-2003 23:36:12 9.4 C 6.42 g/m*3 9.4 C 0 km/h
1410 05-03-2003 23:42:12 9.2 C 6.34 g/m*3 9.2 C 0 km/h
1411 05-03-2003 23:48:12 9.2 C 6.25 g/m*3 9.2 C 0 km/h
1412 05-03-2003 23:54:12 9 C 6.26 g/m*3 9 C 0 km/h
1413 06-03-2003 00:00:12 9.1 C 6.3 g/m*3 9.1 C 0 km/h
1414 06-03-2003 00:06:12 9.3 C 6.29 g/m*3 9.3 C 0 km/h
1415 06-03-2003 00:12:12 9.3 C 6.29 g/m*3 9.3 C 0 km/h
1416 06-03-2003 00:18:12 9.5 C 6.28 g/m*3 9.5 C 0 km/h
1417 06-03-2003 00:24:12 9.4 C 6.24 g/m*3 9.4 C 0 km/h
1418 06-03-2003 00:30:12 9.4 C 6.24 g/m*3 9.4 C 0 km/h
1419 06-03-2003 00:36:12 9.4 C 6.24 g/m*3 9.4 C 0 km/h
1420 06-03-2003 00:42:12 9.5 C 6.28 g/m*3 9.5 C 0 km/h
1421 06-03-2003 00:48:12 9.6 C 6.32 g/m*3 9.6 C 0 km/h
1422 06-03-2003 00:54:12 9.7 C 6.27 g/m*3 9.7 C 0 km/h
1423 06-03-2003 01:00:12 9.6 C 6.23 g/m*3 9.6 C 0 km/h
1424 06-03-2003 01:06:12 9.7 C 6.18 g/m*3 9.7 C 0 km/h
1425 06-03-2003 01:12:12 9.8 C 6.22 g/m*3 9.8 C 0 km/h
Sensor: Nr:Datum:Temp:Abs-Feuchte:Windchill:Wind:
Aussen-T/F 1426 06-03-2003 01:18:12 9.8 C 6.12 g/m*3 9.8 C 0 km/h
1427 06-03-2003 01:24:12 9.6 C 6.14 g/m*3 9.6 C 0 km/h
1428 06-03-2003 01:30:12 9.9 C 6.16 g/m*3 9.9 C 0 km/h
1429 06-03-2003 01:36:12 10 C 5.92 g/m*3 10 C 0 km/h
1430 06-03-2003 01:42:12 10.1 C 5.96 g/m*3 10.1 C 0 km/h
1431 06-03-2003 01:48:12 10.1 C 5.96 g/m*3 10.1 C 0 km/h
1432 06-03-2003 01:54:12 10 C 5.92 g/m*3 10 C 0 km/h
1433 06-03-2003 02:00:12 10 C 5.92 g/m*3 10 C 0 km/h
1434 06-03-2003 02:06:12 10.1 C 5.86 g/m*3 10.1 C 0 km/h
1435 06-03-2003 02:12:12 10.1 C 5.86 g/m*3 10.1 C 0 km/h
1436 06-03-2003 02:18:12 10.1 C 5.86 g/m*3 10.1 C 0 km/h
1437 06-03-2003 02:24:12 10 C 5.83 g/m*3 10 C 0 km/h
1438 06-03-2003 02:30:12 10.1 C 5.86 g/m*3 10.1 C 0 km/h
1439 06-03-2003 02:36:12 10.1 C 5.77 g/m*3 10.1 C 0 km/h
1440 06-03-2003 02:42:12 10 C 5.73 g/m*3 10 C 0 km/h
1441 06-03-2003 02:48:12 10.2 C 5.71 g/m*3 10.2 C 0 km/h
1442 06-03-2003 02:54:12 10.1 C 5.67 g/m*3 10.1 C 0 km/h
1443 06-03-2003 03:00:12 10.2 C 5.71 g/m*3 10.2 C 0 km/h
1444 06-03-2003 03:06:12 10.2 C 5.61 g/m*3 10.2 C 0 km/h
1445 06-03-2003 03:12:12 10.2 C 5.52 g/m*3 10.2 C 0 km/h
1446 06-03-2003 03:18:12 10.2 C 5.52 g/m*3 10.2 C 0 km/h
1447 06-03-2003 03:24:12 10.1 C 5.48 g/m*3 10.1 C 0 km/h
1448 06-03-2003 03:30:12 10 C 5.45 g/m*3 10 C 0 km/h
1449 06-03-2003 03:36:12 9.9 C 5.51 g/m*3 9.9 C 0 km/h
1450 06-03-2003 03:42:12 9.9 C 5.51 g/m*3 9.9 C 0 km/h
Sensor: Nr:Datum:Temp:Abs-Feuchte:Windchill:Wind:
Aussen-T/F 1451 06-03-2003 03:48:12 9.8 C 5.47 g/m*3 9.8 C 0 km/h
1452 06-03-2003 03:54:12 9.7 C 5.53 g/m*3 9.7 C 0 km/h
1453 06-03-2003 04:00:12 9.6 C 5.5 g/m*3 9.6 C 0 km/h
1454 06-03-2003 04:06:12 9.6 C 5.5 g/m*3 9.6 C 0 km/h
1455 06-03-2003 04:12:12 9.6 C 5.5 g/m*3 9.6 C 0 km/h
1456 06-03-2003 04:18:12 9.6 C 5.5 g/m*3 9.6 C 0 km/h
1457 06-03-2003 04:24:12 9.6 C 5.4 g/m*3 9.6 C 0 km/h
1458 06-03-2003 04:30:12 9.5 C 5.46 g/m*3 9.5 C 0 km/h
1459 06-03-2003 04:36:12 9.4 C 5.43 g/m*3 9.4 C 0 km/h
1460 06-03-2003 04:42:12 9.5 C 5.46 g/m*3 9.5 C 0 km/h
1461 06-03-2003 04:48:12 9.5 C 5.37 g/m*3 9.5 C 0 km/h
1462 06-03-2003 04:54:12 9.4 C 5.43 g/m*3 9.4 C 0 km/h
1463 06-03-2003 05:00:12 9.5 C 5.46 g/m*3 9.5 C 0 km/h
1464 06-03-2003 05:06:12 9.4 C 5.43 g/m*3 9.4 C 0 km/h
1465 06-03-2003 05:12:12 9.4 C 5.43 g/m*3 9.4 C 0 km/h
1466 06-03-2003 05:18:12 9.4 C 5.43 g/m*3 9.4 C 0 km/h
1467 06-03-2003 05:24:12 9.3 C 5.39 g/m*3 9.3 C 0 km/h
1468 06-03-2003 05:30:12 9.3 C 5.39 g/m*3 9.3 C 0 km/h
1469 06-03-2003 05:36:12 9.2 C 5.36 g/m*3 9.2 C 0 km/h
1470 06-03-2003 05:42:12 9.1 C 5.32 g/m*3 9.1 C 0 km/h
1471 06-03-2003 05:48:12 9 C 5.29 g/m*3 9 C 0 km/h
1472 06-03-2003 05:54:12 8.7 C 5.36 g/m*3 8.7 C 0 km/h
1473 06-03-2003 06:00:12 8.6 C 5.33 g/m*3 8.6 C 0 km/h
1474 06-03-2003 06:06:12 8.5 C 5.29 g/m*3 8.5 C 0 km/h
1475 06-03-2003 06:12:12 8.4 C 5.34 g/m*3 8.4 C 0 km/h
Sensor: Nr:Datum:Temp:Abs-Feuchte:Windchill:Wind:
Aussen-T/F 1476 06-03-2003 06:18:12 8.5 C 5.38 g/m*3 8.5 C 0 km/h
1477 06-03-2003 06:24:12 8.6 C 5.33 g/m*3 8.6 C 0 km/h
1478 06-03-2003 06:30:12 8.7 C 5.36 g/m*3 8.7 C 0 km/h
1479 06-03-2003 06:36:12 8.6 C 5.33 g/m*3 8.6 C 0 km/h
1480 06-03-2003 06:42:12 8.6 C 5.33 g/m*3 8.6 C 0 km/h
1481 06-03-2003 06:48:12 8.6 C 5.33 g/m*3 8.6 C 0 km/h
1482 06-03-2003 06:54:12 8.6 C 5.33 g/m*3 8.6 C 0 km/h
1483 06-03-2003 07:00:12 8.7 C 5.36 g/m*3 8.7 C 0 km/h
1484 06-03-2003 07:06:12 8.7 C 5.36 g/m*3 8.7 C 0 km/h
1485 06-03-2003 07:12:12 8.6 C 5.33 g/m*3 8.6 C 0 km/h
1486 06-03-2003 07:18:12 8.6 C 5.33 g/m*3 8.6 C 0 km/h
1487 06-03-2003 07:24:12 8.6 C 5.33 g/m*3 8.6 C 0 km/h
1488 06-03-2003 07:30:12 8.6 C 5.33 g/m*3 8.6 C 0 km/h
1489 06-03-2003 07:36:12 8.6 C 5.33 g/m*3 8.6 C 0 km/h
1490 06-03-2003 07:42:12 8.6 C 5.33 g/m*3 8.6 C 0 km/h
1491 06-03-2003 07:48:12 8.7 C 5.36 g/m*3 8.7 C 0 km/h
1492 06-03-2003 07:54:12 8.7 C 5.36 g/m*3 8.7 C 0 km/h
1493 06-03-2003 08:00:12 8.8 C 5.31 g/m*3 8.8 C 0 km/h
1494 06-03-2003 08:06:12 8.7 C 5.28 g/m*3 8.7 C 0 km/h
1495 06-03-2003 08:12:12 9 C 5.38 g/m*3 9 C 0 km/h
1496 06-03-2003 08:18:12 9 C 5.38 g/m*3 9 C 0 km/h
1497 06-03-2003 08:24:12 8.9 C 5.34 g/m*3 8.9 C 0 km/h
1498 06-03-2003 08:30:12 8.9 C 5.34 g/m*3 8.9 C 0 km/h
1499 06-03-2003 08:36:12 8.9 C 5.34 g/m*3 8.9 C 0 km/h
1500 06-03-2003 08:42:12 9 C 5.29 g/m*3 9 C 0 km/h
Sensor: Nr:Datum:Temp:Abs-Feuchte:Windchill:Wind:
Aussen-T/F 1501 06-03-2003 08:48:12 9.1 C 5.32 g/m*3 9.1 C 0 km/h
1502 06-03-2003 08:54:12 9.1 C 5.23 g/m*3 9.1 C 0 km/h
1503 06-03-2003 09:00:12 9.2 C 5.36 g/m*3 9.2 C 0 km/h
1504 06-03-2003 09:06:12 9.2 C 5.27 g/m*3 9.2 C 0 km/h
1505 06-03-2003 09:12:12 9.2 C 5.36 g/m*3 9.2 C 0 km/h
1506 06-03-2003 09:18:12 9.2 C 5.36 g/m*3 9.2 C 0 km/h
1507 06-03-2003 09:24:12 9.4 C 5.34 g/m*3 9.4 C 0 km/h
1508 06-03-2003 09:30:12 9.5 C 5.37 g/m*3 9.5 C 0 km/h
1509 06-03-2003 09:36:12 9.8 C 5.47 g/m*3 9.8 C 0 km/h
1510 06-03-2003 09:42:12 10 C 5.45 g/m*3 10 C 0 km/h
1511 06-03-2003 09:48:12 10.1 C 5.39 g/m*3 10.1 C 0 km/h
1512 06-03-2003 09:54:12 10.2 C 5.42 g/m*3 10.2 C 0 km/h
1513 06-03-2003 10:00:12 10.3 C 5.46 g/m*3 10.3 C 0 km/h
1514 06-03-2003 10:06:12 10.3 C 5.36 g/m*3 10.3 C 0 km/h
1515 06-03-2003 10:12:12 10.2 C 5.33 g/m*3 10.2 C 0 km/h
1516 06-03-2003 10:18:12 10.4 C 5.49 g/m*3 10.4 C 0 km/h
1517 06-03-2003 10:24:12 10.5 C 5.53 g/m*3 10.5 C 0 km/h
1518 06-03-2003 10:30:12 10.5 C 5.63 g/m*3 10.5 C 0 km/h
1519 06-03-2003 10:36:12 10.6 C 5.66 g/m*3 10.6 C 0 km/h
1520 06-03-2003 10:42:12 10.5 C 5.72 g/m*3 10.5 C 0 km/h
1521 06-03-2003 10:48:12 10.3 C 5.65 g/m*3 10.3 C 0 km/h
1522 06-03-2003 10:54:12 9.8 C 5.75 g/m*3 9.8 C 0 km/h
1523 06-03-2003 11:00:12 9.3 C 5.84 g/m*3 9.3 C 0 km/h
1524 06-03-2003 11:06:12 9.1 C 5.86 g/m*3 9.1 C 0 km/h
1525 06-03-2003 11:12:12 8.7 C 5.97 g/m*3 8.7 C 0 km/h
Sensor: Nr:Datum:Temp:Abs-Feuchte:Windchill:Wind:
Aussen-T/F 1526 06-03-2003 11:18:12 8.4 C 6.36 g/m*3 8.4 C 0 km/h
1527 06-03-2003 11:24:12 8.2 C 6.45 g/m*3 8.2 C 0 km/h
1528 06-03-2003 11:30:12 8.1 C 6.66 g/m*3 8.1 C 0 km/h
1529 06-03-2003 11:36:12 8.1 C 6.74 g/m*3 8.1 C 0 km/h
1530 06-03-2003 11:42:12 8.3 C 6.91 g/m*3 8.3 C 0 km/h
1531 06-03-2003 11:48:12 8.4 C 7.04 g/m*3 8.4 C 0 km/h
1532 06-03-2003 11:54:12 8.2 C 6.95 g/m*3 8.2 C 0 km/h
1533 06-03-2003 12:00:12 8.2 C 7.03 g/m*3 8.2 C 0 km/h
1534 06-03-2003 12:06:12 8.3 C 7.16 g/m*3 8.3 C 0 km/h
1535 06-03-2003 12:12:12 8.2 C 7.03 g/m*3 8.2 C 0 km/h
1536 06-03-2003 12:18:12 8.2 C 7.03 g/m*3 8.2 C 0 km/h
1537 06-03-2003 12:24:12 8.2 C 7.03 g/m*3 8.2 C 0 km/h
1538 06-03-2003 12:30:12 8.2 C 7.03 g/m*3 8.2 C 0 km/h
1539 06-03-2003 12:36:12 8.2 C 7.03 g/m*3 8.2 C 0 km/h
1540 06-03-2003 12:42:12 8 C 7.03 g/m*3 8 C 0 km/h
1541 06-03-2003 12:48:12 8.1 C 7.07 g/m*3 8.1 C 0 km/h
1542 06-03-2003 12:54:12 8.1 C 7.07 g/m*3 8.1 C 0 km/h
1543 06-03-2003 13:00:12 8 C 7.11 g/m*3 8 C 0 km/h
1544 06-03-2003 13:06:12 8 C 7.11 g/m*3 8 C 0 km/h
1545 06-03-2003 13:12:12 8.1 C 7.24 g/m*3 8.1 C 0 km/h
1546 06-03-2003 13:18:12 8.1 C 7.24 g/m*3 8.1 C 0 km/h
1547 06-03-2003 13:24:12 7.8 C 7.02 g/m*3 7.8 C 0 km/h
1548 06-03-2003 13:30:12 7.7 C 6.89 g/m*3 7.7 C 0 km/h
1549 06-03-2003 13:36:12 7.6 C 6.85 g/m*3 7.6 C 0 km/h
1550 06-03-2003 13:42:12 7.6 C 6.93 g/m*3 7.6 C 0 km/h
Sensor: Nr:Datum:Temp:Abs-Feuchte:Windchill:Wind:
Aussen-T/F 1551 06-03-2003 13:48:12 7.6 C 6.93 g/m*3 7.6 C 0 km/h
1552 06-03-2003 13:54:12 7.4 C 6.6 g/m*3 7.4 C 0 km/h
1553 06-03-2003 14:00:12 7.3 C 6.56 g/m*3 7.3 C 0 km/h
1554 06-03-2003 14:06:12 7.1 C 6.47 g/m*3 7.1 C 0 km/h
1555 06-03-2003 14:12:12 7 C 6.43 g/m*3 7 C 0 km/h
1556 06-03-2003 14:18:12 7 C 6.43 g/m*3 7 C 0 km/h
1557 06-03-2003 14:24:12 7 C 6.43 g/m*3 7 C 0 km/h
1558 06-03-2003 14:30:12 6.9 C 6.39 g/m*3 6.9 C 0 km/h
1559 06-03-2003 14:36:12 6.8 C 6.42 g/m*3 6.8 C 0 km/h
1560 06-03-2003 14:42:12 6.9 C 6.54 g/m*3 6.9 C 0 km/h
1561 06-03-2003 14:48:12 6.9 C 6.62 g/m*3 6.9 C 0 km/h
1562 06-03-2003 14:54:12 6.9 C 6.62 g/m*3 6.9 C 0 km/h
1563 06-03-2003 15:00:12 6.9 C 6.62 g/m*3 6.9 C 0 km/h
1564 06-03-2003 15:06:12 6.9 C 6.62 g/m*3 6.9 C 0 km/h
1565 06-03-2003 15:12:12 6.9 C 6.62 g/m*3 6.9 C 0 km/h
1566 06-03-2003 15:18:12 6.9 C 6.62 g/m*3 6.9 C 0 km/h
1567 06-03-2003 15:24:12 6.7 C 6.38 g/m*3 6.7 C 0 km/h
1568 06-03-2003 15:30:12 6.7 C 6.38 g/m*3 6.7 C 0 km/h
1569 06-03-2003 15:36:12 6.7 C 6.38 g/m*3 6.7 C 0 km/h
1570 06-03-2003 15:42:12 6.7 C 6.38 g/m*3 6.7 C 0 km/h
1571 06-03-2003 15:48:12 6.7 C 6.38 g/m*3 6.7 C 0 km/h
1572 06-03-2003 15:54:12 6.7 C 6.38 g/m*3 6.7 C 0 km/h
1573 06-03-2003 16:00:03 6.7 C 6.38 g/m*3 6.7 C 0 km/h
1574 06-03-2003 16:06:03 6.7 C 6.38 g/m*3 6.7 C 0 km/h
1575 06-03-2003 16:12:03 6.7 C 6.38 g/m*3 6.7 C 0 km/h
Sensor: Nr:Datum:Temp:Abs-Feuchte:Windchill:Wind:
Aussen-T/F 1576 06-03-2003 16:18:03 6.7 C 6.38 g/m*3 6.7 C 0 km/h
1577 06-03-2003 16:24:03 6.7 C 6.38 g/m*3 6.7 C 0 km/h
1578 06-03-2003 16:30:03 6.7 C 6.38 g/m*3 6.7 C 0 km/h
1579 06-03-2003 16:36:03 6.7 C 6.38 g/m*3 6.7 C 0 km/h
1580 06-03-2003 16:42:03 6.2 C 6.18 g/m*3 6.2 C 0 km/h
1581 06-03-2003 16:48:03 6.2 C 6.18 g/m*3 6.2 C 0 km/h
1582 06-03-2003 16:54:03 6.2 C 6.18 g/m*3 6.2 C 0 km/h
1583 06-03-2003 17:00:03 6.2 C 6.18 g/m*3 6.2 C 0 km/h
1584 06-03-2003 17:06:03 6.2 C 6.18 g/m*3 6.2 C 0 km/h
1585 06-03-2003 17:12:03 6.2 C 6.18 g/m*3 6.2 C 0 km/h
1586 06-03-2003 17:18:03 6.2 C 6.1 g/m*3 6.2 C 0 km/h
1587 06-03-2003 17:24:03 6.2 C 6.1 g/m*3 6.2 C 0 km/h
1588 06-03-2003 17:30:03 6.2 C 6.1 g/m*3 6.2 C 0 km/h
1589 06-03-2003 17:36:03 6.2 C 6.1 g/m*3 6.2 C 0 km/h
1590 06-03-2003 17:42:53 6.1 C 6.14 g/m*3 6.1 C 0 km/h
1591 06-03-2003 17:48:08 6.1 C 6.14 g/m*3 6.1 C 0 km/h
1592 06-03-2003 17:53:12 6 C 6.1 g/m*3 6 C 0 km/h
1593 06-03-2003 18:03:12 6 C 6.1 g/m*3 6 C 0 km/h
1594 06-03-2003 18:13:12 6 C 6.17 g/m*3 6 C 0 km/h
1595 06-03-2003 18:23:12 6 C 6.17 g/m*3 6 C 0 km/h
1596 06-03-2003 18:33:12 5.9 C 6.2 g/m*3 5.9 C 0 km/h
1597 06-03-2003 18:43:12 5.9 C 6.2 g/m*3 5.9 C 0 km/h
1598 06-03-2003 18:53:12 6 C 6.17 g/m*3 6 C 0 km/h
1599 06-03-2003 19:03:12 5.9 C 6.13 g/m*3 5.9 C 0 km/h
1600 06-03-2003 19:13:12 6 C 6.1 g/m*3 6 C 0 km/h
Sensor: Nr:Datum:Temp:Abs-Feuchte:Windchill:Wind:
Aussen-T/F 1601 06-03-2003 19:23:12 6 C 6.02 g/m*3 6 C 0 km/h
1602 06-03-2003 19:33:12 6 C 6.02 g/m*3 6 C 0 km/h
1603 06-03-2003 19:43:12 6.3 C 5.92 g/m*3 6.3 C 0 km/h
1604 06-03-2003 19:53:12 6.2 C 5.88 g/m*3 6.2 C 0 km/h
1605 06-03-2003 20:04:26 6.2 C 5.88 g/m*3 6.2 C 0 km/h
1606 06-03-2003 20:14:26 6.1 C 5.92 g/m*3 6.1 C 0 km/h
1607 06-03-2003 20:24:26 5.9 C 5.98 g/m*3 5.9 C 0 km/h
1608 06-03-2003 20:44:26 6 C 5.88 g/m*3 6 C 0 km/h
1609 06-03-2003 20:54:26 5.7 C 5.84 g/m*3 5.7 C 0 km/h
1610 06-03-2003 21:04:26 6 C 5.88 g/m*3 6 C 0 km/h
1611 06-03-2003 21:14:26 5.5 C 5.76 g/m*3 5.5 C 0 km/h
1612 06-03-2003 21:24:26 5.2 C 5.71 g/m*3 5.2 C 0 km/h
1613 06-03-2003 21:34:26 5.4 C 5.79 g/m*3 5.4 C 0 km/h
1614 06-03-2003 21:44:26 5.6 C 5.8 g/m*3 5.6 C 0 km/h
1615 06-03-2003 21:54:26 5.9 C 5.84 g/m*3 5.9 C 0 km/h
1616 06-03-2003 22:04:26 6 C 5.66 g/m*3 6 C 0 km/h
1617 06-03-2003 22:14:26 5.8 C 5.66 g/m*3 5.8 C 0 km/h
1618 06-03-2003 22:24:26 5.8 C 5.73 g/m*3 5.8 C 0 km/h
1619 06-03-2003 22:34:26 5.6 C 5.66 g/m*3 5.6 C 0 km/h
1620 06-03-2003 22:44:26 5.8 C 5.66 g/m*3 5.8 C 0 km/h
1621 06-03-2003 22:54:26 5.9 C 5.62 g/m*3 5.9 C 0 km/h
1622 06-03-2003 23:04:26 5.9 C 5.48 g/m*3 5.9 C 0 km/h
1623 06-03-2003 23:14:26 5.8 C 5.44 g/m*3 5.8 C 0 km/h
1624 06-03-2003 23:24:26 5.9 C 5.48 g/m*3 5.9 C 0 km/h
1625 06-03-2003 23:34:26 6 C 5.37 g/m*3 6 C 0 km/h
Sensor: Nr:Datum:Temp:Abs-Feuchte:Windchill:Wind:
Aussen-T/F 1626 06-03-2003 23:44:26 5.9 C 5.48 g/m*3 5.9 C 0 km/h
1627 06-03-2003 23:54:26 5.9 C 5.48 g/m*3 5.9 C 0 km/h
1628 07-03-2003 00:04:26 5.6 C 5.44 g/m*3 5.6 C 0 km/h
1629 07-03-2003 00:14:26 5.5 C 5.48 g/m*3 5.5 C 0 km/h
1630 07-03-2003 00:24:26 5.2 C 5.44 g/m*3 5.2 C 0 km/h
1631 07-03-2003 00:34:26 5.1 C 5.4 g/m*3 5.1 C 0 km/h
1632 07-03-2003 00:44:26 4.6 C 5.29 g/m*3 4.6 C 0 km/h
1633 07-03-2003 00:54:26 4.1 C 5.25 g/m*3 4.1 C 0 km/h
1634 07-03-2003 01:04:26 3.7 C 5.17 g/m*3 3.7 C 0 km/h
1635 07-03-2003 01:14:26 3.5 C 5.23 g/m*3 3.5 C 0 km/h
1636 07-03-2003 01:24:26 3.2 C 5.12 g/m*3 3.2 C 0 km/h
1637 07-03-2003 01:34:26 2.9 C 5.08 g/m*3 2.9 C 0 km/h
1638 07-03-2003 01:44:26 2.9 C 5.08 g/m*3 2.9 C 0 km/h
1639 07-03-2003 01:54:26 2.7 C 5.07 g/m*3 2.7 C 0 km/h
1640 07-03-2003 02:04:26 2.4 C 4.91 g/m*3 2.4 C 0 km/h
1641 07-03-2003 02:14:26 2.5 C 5 g/m*3 2.5 C 0 km/h
1642 07-03-2003 02:24:26 2.3 C 4.93 g/m*3 2.3 C 0 km/h
1643 07-03-2003 02:34:26 2.7 C 5.13 g/m*3 2.7 C 0 km/h
1644 07-03-2003 02:44:26 2.7 C 5.19 g/m*3 2.7 C 0 km/h
1645 07-03-2003 02:54:26 3 C 5.23 g/m*3 3 C 0 km/h
1646 07-03-2003 03:04:26 3.1 C 5.27 g/m*3 3.1 C 0 km/h
1647 07-03-2003 03:14:26 3.2 C 5.3 g/m*3 3.2 C 0 km/h
1648 07-03-2003 03:24:26 3.3 C 5.28 g/m*3 3.3 C 0 km/h
1649 07-03-2003 03:34:26 3.3 C 5.22 g/m*3 3.3 C 0 km/h
1650 07-03-2003 03:44:26 3.4 C 5.25 g/m*3 3.4 C 0 km/h
Sensor: Nr:Datum:Temp:Abs-Feuchte:Windchill:Wind:
Aussen-T/F 1651 07-03-2003 03:54:26 3.3 C 5.16 g/m*3 3.3 C 0 km/h
1652 07-03-2003 04:04:26 3.4 C 5.19 g/m*3 3.4 C 0 km/h
1653 07-03-2003 04:14:26 3.4 C 5.19 g/m*3 3.4 C 0 km/h
1654 07-03-2003 04:24:26 3.3 C 5.16 g/m*3 3.3 C 0 km/h
1655 07-03-2003 04:34:26 3.2 C 5.12 g/m*3 3.2 C 0 km/h
1656 07-03-2003 04:44:26 2.9 C 5.02 g/m*3 2.9 C 0 km/h
1657 07-03-2003 04:54:26 2.5 C 4.94 g/m*3 2.5 C 0 km/h
1658 07-03-2003 05:04:26 2.3 C 4.88 g/m*3 2.3 C 0 km/h
1659 07-03-2003 05:14:26 2.1 C 4.81 g/m*3 2.1 C 0 km/h
1660 07-03-2003 05:24:26 1.9 C 4.8 g/m*3 1.9 C 0 km/h
1661 07-03-2003 05:34:26 1.4 C 4.59 g/m*3 1.4 C 0 km/h
1662 07-03-2003 05:44:26 1.2 C 4.58 g/m*3 1.2 C 0 km/h
1663 07-03-2003 05:54:26 1.2 C 4.58 g/m*3 1.2 C 0 km/h
1664 07-03-2003 06:04:26 1.1 C 4.55 g/m*3 1.1 C 0 km/h
1665 07-03-2003 06:14:26 1.2 C 4.63 g/m*3 1.2 C 0 km/h
1666 07-03-2003 06:24:26 1.1 C 4.6 g/m*3 1.1 C 0 km/h
1667 07-03-2003 06:34:26 1.1 C 4.6 g/m*3 1.1 C 0 km/h
1668 07-03-2003 06:44:26 1.2 C 4.68 g/m*3 1.2 C 0 km/h
1669 07-03-2003 06:54:26 1.1 C 4.7 g/m*3 1.1 C 0 km/h
1670 07-03-2003 07:04:26 0.9 C 4.69 g/m*3 0.9 C 0 km/h
1671 07-03-2003 07:14:26 1 C 4.67 g/m*3 1 C 0 km/h
1672 07-03-2003 07:24:26 1 C 4.67 g/m*3 1 C 0 km/h
1673 07-03-2003 07:34:26 1.1 C 4.76 g/m*3 1.1 C 0 km/h
1674 07-03-2003 07:44:26 1.3 C 4.82 g/m*3 1.3 C 0 km/h
1675 07-03-2003 07:54:26 1.7 C 4.95 g/m*3 1.7 C 0 km/h
Sensor: Nr:Datum:Temp:Abs-Feuchte:Windchill:Wind:
Aussen-T/F 1676 07-03-2003 08:04:26 1.7 C 4.95 g/m*3 1.7 C 0 km/h
1677 07-03-2003 08:14:26 2.1 C 4.98 g/m*3 2.1 C 0 km/h
1678 07-03-2003 08:24:26 2.3 C 5.05 g/m*3 2.3 C 0 km/h
1679 07-03-2003 08:34:26 2.1 C 4.92 g/m*3 2.1 C 0 km/h
1680 07-03-2003 08:44:26 2 C 4.89 g/m*3 2 C 0 km/h
1681 07-03-2003 08:54:26 2.3 C 4.99 g/m*3 2.3 C 0 km/h
1682 07-03-2003 09:04:26 2.5 C 5 g/m*3 2.5 C 0 km/h
1683 07-03-2003 09:14:26 2.7 C 5.01 g/m*3 2.7 C 0 km/h
1684 07-03-2003 09:24:26 2.9 C 5.02 g/m*3 2.9 C 0 km/h
1685 07-03-2003 09:34:26 3.3 C 5.1 g/m*3 3.3 C 0 km/h
1686 07-03-2003 09:44:26 3.5 C 5.1 g/m*3 3.5 C 0 km/h
1687 07-03-2003 09:54:26 3.5 C 5.04 g/m*3 3.5 C 0 km/h
1688 07-03-2003 10:04:26 3.6 C 5.01 g/m*3 3.6 C 0 km/h
1689 07-03-2003 10:14:26 3.7 C 5.05 g/m*3 3.7 C 0 km/h
1690 07-03-2003 10:24:26 4.4 C 5.16 g/m*3 4.4 C 0 km/h
1691 07-03-2003 10:34:26 4.9 C 5.27 g/m*3 4.9 C 0 km/h
1692 07-03-2003 10:44:26 5.5 C 5.34 g/m*3 5.5 C 0 km/h
1693 07-03-2003 10:54:26 5.8 C 5.3 g/m*3 5.8 C 0 km/h
1694 07-03-2003 11:04:26 5.8 C 5.37 g/m*3 5.8 C 0 km/h
1695 07-03-2003 11:14:26 5.8 C 5.3 g/m*3 5.8 C 0 km/h
1696 07-03-2003 11:24:26 6.2 C 5.37 g/m*3 6.2 C 0 km/h
1697 07-03-2003 11:34:26 6.6 C 5.51 g/m*3 6.6 C 0 km/h
1698 07-03-2003 11:44:26 6.4 C 5.36 g/m*3 6.4 C 0 km/h
1699 07-03-2003 11:54:26 6.3 C 5.4 g/m*3 6.3 C 0 km/h
1700 07-03-2003 12:04:26 6.9 C 5.85 g/m*3 6.9 C 0 km/h
Sensor: Nr:Datum:Temp:Abs-Feuchte:Windchill:Wind:
Aussen-T/F 1701 07-03-2003 12:14:26 7.7 C 5.92 g/m*3 7.7 C 0 km/h
1702 07-03-2003 12:24:26 8.3 C 6.07 g/m*3 8.3 C 0 km/h
1703 07-03-2003 12:34:26 8.9 C 6.04 g/m*3 8.9 C 0 km/h
1704 07-03-2003 12:44:26 8.9 C 5.87 g/m*3 8.9 C 0 km/h
1705 07-03-2003 12:54:26 9.3 C 5.75 g/m*3 9.3 C 0 km/h
1706 07-03-2003 13:04:26 9.4 C 5.79 g/m*3 9.4 C 0 km/h
1707 07-03-2003 13:14:26 9.7 C 5.72 g/m*3 9.7 C 0 km/h
1708 07-03-2003 13:24:26 10.1 C 5.48 g/m*3 10.1 C 0 km/h
1709 07-03-2003 13:34:26 10.7 C 5.7 g/m*3 10.7 C 0 km/h
1710 07-03-2003 13:44:26 10.8 C 5.54 g/m*3 10.8 C 0 km/h
1711 07-03-2003 13:54:26 11.6 C 5.51 g/m*3 11.6 C 0 km/h
1712 07-03-2003 14:04:26 11.3 C 5.41 g/m*3 11.3 C 0 km/h
1713 07-03-2003 14:14:26 12 C 5.44 g/m*3 12 C 0 km/h
1714 07-03-2003 14:24:26 12.2 C 5.5 g/m*3 12.2 C 0 km/h
1715 07-03-2003 14:34:26 12.1 C 5.25 g/m*3 12.1 C 0 km/h
1716 07-03-2003 14:44:26 11.8 C 5.16 g/m*3 11.8 C 0 km/h
1717 07-03-2003 14:54:26 12 C 5.22 g/m*3 12 C 0 km/h
1718 07-03-2003 15:04:26 12 C 4.9 g/m*3 12 C 0 km/h
1719 07-03-2003 15:14:26 11.7 C 4.92 g/m*3 11.7 C 0 km/h
1720 07-03-2003 15:24:26 11.9 C 5.08 g/m*3 11.9 C 0 km/h
1721 07-03-2003 15:34:26 11.9 C 4.87 g/m*3 11.9 C 0 km/h
1722 07-03-2003 15:44:26 11.7 C 4.71 g/m*3 11.7 C 0 km/h
1723 07-03-2003 15:54:26 11.2 C 4.66 g/m*3 11.2 C 0 km/h
1724 07-03-2003 16:34:08 11 C 4.8 g/m*3 11 C 0 km/h
1725 07-03-2003 16:44:08 11 C 4.8 g/m*3 11 C 0 km/h
Sensor: Nr:Datum:Temp:Abs-Feuchte:Windchill:Wind:
Aussen-T/F 1726 07-03-2003 16:54:08 11 C 4.8 g/m*3 11 C 0 km/h
1727 07-03-2003 17:04:08 10.6 C 4.88 g/m*3 10.6 C 0 km/h
1728 07-03-2003 17:14:13 10.4 C 4.92 g/m*3 10.4 C 0 km/h
1729 07-03-2003 17:24:13 10.4 C 4.92 g/m*3 10.4 C 0 km/h
1730 07-03-2003 17:34:14 9.7 C 4.79 g/m*3 9.7 C 0 km/h
1731 07-03-2003 17:44:14 9.6 C 4.67 g/m*3 9.6 C 0 km/h
1732 07-03-2003 17:54:14 9.1 C 4.7 g/m*3 9.1 C 0 km/h
1733 07-03-2003 18:04:13 8.6 C 5.24 g/m*3 8.6 C 0 km/h
1734 07-03-2003 18:14:13 8.3 C 5.14 g/m*3 8.3 C 0 km/h
1735 07-03-2003 18:24:13 8 C 5.13 g/m*3 8 C 0 km/h
1736 07-03-2003 18:34:13 7.7 C 5.27 g/m*3 7.7 C 0 km/h
1737 07-03-2003 18:44:13 7.4 C 5.09 g/m*3 7.4 C 0 km/h
1738 07-03-2003 18:54:13 7.4 C 4.93 g/m*3 7.4 C 0 km/h
1739 07-03-2003 19:04:15 7.2 C 4.87 g/m*3 7.2 C 0 km/h
1740 07-03-2003 19:14:15 7.3 C 4.98 g/m*3 7.3 C 0 km/h
1741 07-03-2003 19:24:15 7.4 C 4.93 g/m*3 7.4 C 0 km/h
1742 07-03-2003 19:34:15 7.6 C 4.99 g/m*3 7.6 C 0 km/h
1743 07-03-2003 19:44:15 7.3 C 4.98 g/m*3 7.3 C 0 km/h
1744 07-03-2003 19:54:15 7.3 C 5.06 g/m*3 7.3 C 0 km/h
1745 07-03-2003 20:04:14 7.5 C 5.04 g/m*3 7.5 C 0 km/h
1746 07-03-2003 20:14:14 7.5 C 5.04 g/m*3 7.5 C 0 km/h
1747 07-03-2003 20:24:14 7.5 C 5.04 g/m*3 7.5 C 0 km/h
1748 07-03-2003 20:34:14 7.5 C 5.04 g/m*3 7.5 C 0 km/h
1749 07-03-2003 20:44:14 6.5 C 5.1 g/m*3 6.5 C 0 km/h
1750 07-03-2003 20:54:14 6.5 C 5.1 g/m*3 6.5 C 0 km/h
Sensor: Nr:Datum:Temp:Abs-Feuchte:Windchill:Wind:
Aussen-T/F 1751 07-03-2003 21:05:12 5.7 C 5.05 g/m*3 5.7 C 0 km/h
1752 07-03-2003 21:15:12 5.2 C 4.89 g/m*3 5.2 C 0 km/h
1753 07-03-2003 21:25:12 5.1 C 4.86 g/m*3 5.1 C 0 km/h
1754 07-03-2003 21:35:12 4.7 C 4.8 g/m*3 4.7 C 0 km/h
1755 07-03-2003 21:45:12 4.6 C 4.76 g/m*3 4.6 C 0 km/h
1756 07-03-2003 21:55:12 4.4 C 4.77 g/m*3 4.4 C 0 km/h
1757 07-03-2003 22:05:12 4.3 C 4.74 g/m*3 4.3 C 0 km/h
1758 07-03-2003 22:15:12 4.3 C 4.67 g/m*3 4.3 C 0 km/h
1759 07-03-2003 22:25:12 3.8 C 4.64 g/m*3 3.8 C 0 km/h
1760 07-03-2003 22:35:12 3.7 C 4.67 g/m*3 3.7 C 0 km/h
1761 07-03-2003 22:45:12 3.8 C 4.64 g/m*3 3.8 C 0 km/h
1762 07-03-2003 22:55:12 3.7 C 4.61 g/m*3 3.7 C 0 km/h
1763 07-03-2003 23:05:12 3.6 C 4.58 g/m*3 3.6 C 0 km/h
1764 07-03-2003 23:15:12 4.1 C 4.67 g/m*3 4.1 C 0 km/h
1765 07-03-2003 23:25:12 3.8 C 4.64 g/m*3 3.8 C 0 km/h
1766 07-03-2003 23:35:12 3.5 C 4.55 g/m*3 3.5 C 0 km/h
1767 07-03-2003 23:45:12 3.5 C 4.61 g/m*3 3.5 C 0 km/h
1768 07-03-2003 23:55:12 3.5 C 4.61 g/m*3 3.5 C 0 km/h

Legende:
   Min
   Max


Maximal/Minimal-Werte vom 01.03.2003 - 07.03.2003

Sensor Min Max Avg
Temp
(Aussen-T/F)
0.9 °C
04-03-2003  08:04:10
14.3 °C
05-03-2003  13:23:12
7.73 °C
Abs-Feuchte
(Aussen-T/F)
4.55 g/m*3
07-03-2003  06:04:26
8.1 g/m*3
02-03-2003  09:50:11
6.22 g/m*3
Windchill
(Aussen-T/F)
0.9 C
04-03-2003  08:04:10
13.6 C
04-03-2003  15:34:11
7.55 C

Die Daten stammen von einer Davis Vantage Pro 2 Wetter-Station und werden unter Linux mit der Software wview2wettercgi und aufbereitet. Alle Angaben erfolgen ohne Gewähr für ihre Vollständigkeit oder Richtigkeit.
Kontakt: Rainer Krienke krienke@uni-koblenz.de . Meine Webseiten an der Uni Koblenz oder privat.
Version: $Revision: 0.78 $